<?xml version="1.0" encoding="UTF-8" standalone="no" ?>
<gpx xmlns="http://www.topografix.com/GPX/1/1" xmlns:xsi="http://www.w3.org/2001/XMLSchema-instance" xsi:schemaLocation="http://www.topografix.com/GPX/1/1 http://www.topografix.com/GPX/1/1/gpx.xsd" version="1.1" creator="VisuGPX - https://www.visugpx.com">
  <metadata>
    <name>course a cugnaux</name>
    <desc><![CDATA[course a cugnaux et ramee]]></desc>
  </metadata>
  <trk>
    <name><![CDATA[Cugnaux Course à pied]]></name>
    <trkseg>
      <trkpt lat="43.56434" lon="1.38338">
        <ele>160</ele>
        <time>2015-05-29T09:58:03.000Z</time>
      </trkpt>
      <trkpt lat="43.56437" lon="1.38341">
        <ele>159</ele>
        <time>2015-05-29T09:58:07.000Z</time>
      </trkpt>
      <trkpt lat="43.56438" lon="1.38343">
        <ele>159</ele>
        <time>2015-05-29T09:58:08.000Z</time>
      </trkpt>
      <trkpt lat="43.56441" lon="1.38356">
        <ele>159</ele>
        <time>2015-05-29T09:58:13.000Z</time>
      </trkpt>
      <trkpt lat="43.56443" lon="1.38358">
        <ele>159</ele>
        <time>2015-05-29T09:58:14.000Z</time>
      </trkpt>
      <trkpt lat="43.56453" lon="1.38371">
        <ele>159</ele>
        <time>2015-05-29T09:58:20.000Z</time>
      </trkpt>
      <trkpt lat="43.56462" lon="1.38383">
        <ele>158</ele>
        <time>2015-05-29T09:58:26.000Z</time>
      </trkpt>
      <trkpt lat="43.56473" lon="1.38385">
        <ele>158</ele>
        <time>2015-05-29T09:58:31.000Z</time>
      </trkpt>
      <trkpt lat="43.56487" lon="1.38376">
        <ele>158</ele>
        <time>2015-05-29T09:58:38.000Z</time>
      </trkpt>
      <trkpt lat="43.56494" lon="1.38362">
        <ele>157</ele>
        <time>2015-05-29T09:58:43.000Z</time>
      </trkpt>
      <trkpt lat="43.565" lon="1.38345">
        <ele>156</ele>
        <time>2015-05-29T09:58:49.000Z</time>
      </trkpt>
      <trkpt lat="43.56506" lon="1.38331">
        <ele>155</ele>
        <time>2015-05-29T09:58:54.000Z</time>
      </trkpt>
      <trkpt lat="43.56515" lon="1.38313">
        <ele>156</ele>
        <time>2015-05-29T09:59:01.000Z</time>
      </trkpt>
      <trkpt lat="43.56525" lon="1.38293">
        <ele>156</ele>
        <time>2015-05-29T09:59:08.000Z</time>
      </trkpt>
      <trkpt lat="43.56533" lon="1.38275">
        <ele>156</ele>
        <time>2015-05-29T09:59:15.000Z</time>
      </trkpt>
      <trkpt lat="43.56539" lon="1.3826">
        <ele>156</ele>
        <time>2015-05-29T09:59:20.000Z</time>
      </trkpt>
      <trkpt lat="43.56544" lon="1.38247">
        <ele>156</ele>
        <time>2015-05-29T09:59:25.000Z</time>
      </trkpt>
      <trkpt lat="43.56551" lon="1.38229">
        <ele>156</ele>
        <time>2015-05-29T09:59:31.000Z</time>
      </trkpt>
      <trkpt lat="43.56558" lon="1.38215">
        <ele>156</ele>
        <time>2015-05-29T09:59:36.000Z</time>
      </trkpt>
      <trkpt lat="43.56562" lon="1.38202">
        <ele>156</ele>
        <time>2015-05-29T09:59:41.000Z</time>
      </trkpt>
      <trkpt lat="43.56566" lon="1.38191">
        <ele>156</ele>
        <time>2015-05-29T09:59:45.000Z</time>
      </trkpt>
      <trkpt lat="43.56572" lon="1.38173">
        <ele>156</ele>
        <time>2015-05-29T09:59:51.000Z</time>
      </trkpt>
      <trkpt lat="43.56579" lon="1.38156">
        <ele>156</ele>
        <time>2015-05-29T09:59:57.000Z</time>
      </trkpt>
      <trkpt lat="43.56584" lon="1.38138">
        <ele>156</ele>
        <time>2015-05-29T10:00:03.000Z</time>
      </trkpt>
      <trkpt lat="43.56587" lon="1.38123">
        <ele>156</ele>
        <time>2015-05-29T10:00:08.000Z</time>
      </trkpt>
      <trkpt lat="43.56593" lon="1.38103">
        <ele>156</ele>
        <time>2015-05-29T10:00:15.000Z</time>
      </trkpt>
      <trkpt lat="43.56599" lon="1.38088">
        <ele>156</ele>
        <time>2015-05-29T10:00:20.000Z</time>
      </trkpt>
      <trkpt lat="43.56606" lon="1.3807">
        <ele>157</ele>
        <time>2015-05-29T10:00:26.000Z</time>
      </trkpt>
      <trkpt lat="43.56609" lon="1.38056">
        <ele>157</ele>
        <time>2015-05-29T10:00:30.000Z</time>
      </trkpt>
      <trkpt lat="43.56615" lon="1.3804">
        <ele>157</ele>
        <time>2015-05-29T10:00:35.000Z</time>
      </trkpt>
      <trkpt lat="43.56621" lon="1.38023">
        <ele>157</ele>
        <time>2015-05-29T10:00:41.000Z</time>
      </trkpt>
      <trkpt lat="43.56626" lon="1.38008">
        <ele>157</ele>
        <time>2015-05-29T10:00:46.000Z</time>
      </trkpt>
      <trkpt lat="43.56633" lon="1.3799">
        <ele>158</ele>
        <time>2015-05-29T10:00:52.000Z</time>
      </trkpt>
      <trkpt lat="43.56638" lon="1.37975">
        <ele>158</ele>
        <time>2015-05-29T10:00:57.000Z</time>
      </trkpt>
      <trkpt lat="43.56644" lon="1.37961">
        <ele>157</ele>
        <time>2015-05-29T10:01:02.000Z</time>
      </trkpt>
      <trkpt lat="43.56652" lon="1.37942">
        <ele>157</ele>
        <time>2015-05-29T10:01:08.000Z</time>
      </trkpt>
      <trkpt lat="43.56659" lon="1.37928">
        <ele>157</ele>
        <time>2015-05-29T10:01:13.000Z</time>
      </trkpt>
      <trkpt lat="43.56668" lon="1.3791">
        <ele>158</ele>
        <time>2015-05-29T10:01:19.000Z</time>
      </trkpt>
      <trkpt lat="43.56677" lon="1.3789">
        <ele>159</ele>
        <time>2015-05-29T10:01:26.000Z</time>
      </trkpt>
      <trkpt lat="43.56685" lon="1.37869">
        <ele>159</ele>
        <time>2015-05-29T10:01:34.000Z</time>
      </trkpt>
      <trkpt lat="43.56692" lon="1.37854">
        <ele>159</ele>
        <time>2015-05-29T10:01:39.000Z</time>
      </trkpt>
      <trkpt lat="43.56701" lon="1.37837">
        <ele>159</ele>
        <time>2015-05-29T10:01:45.000Z</time>
      </trkpt>
      <trkpt lat="43.56708" lon="1.37817">
        <ele>159</ele>
        <time>2015-05-29T10:01:52.000Z</time>
      </trkpt>
      <trkpt lat="43.56717" lon="1.37799">
        <ele>159</ele>
        <time>2015-05-29T10:01:58.000Z</time>
      </trkpt>
      <trkpt lat="43.56723" lon="1.37788">
        <ele>159</ele>
        <time>2015-05-29T10:02:02.000Z</time>
      </trkpt>
      <trkpt lat="43.56728" lon="1.37774">
        <ele>159</ele>
        <time>2015-05-29T10:02:07.000Z</time>
      </trkpt>
      <trkpt lat="43.56735" lon="1.3776">
        <ele>159</ele>
        <time>2015-05-29T10:02:12.000Z</time>
      </trkpt>
      <trkpt lat="43.56745" lon="1.37742">
        <ele>159</ele>
        <time>2015-05-29T10:02:18.000Z</time>
      </trkpt>
      <trkpt lat="43.56755" lon="1.37725">
        <ele>160</ele>
        <time>2015-05-29T10:02:24.000Z</time>
      </trkpt>
      <trkpt lat="43.56764" lon="1.37709">
        <ele>160</ele>
        <time>2015-05-29T10:02:30.000Z</time>
      </trkpt>
      <trkpt lat="43.56772" lon="1.37694">
        <ele>160</ele>
        <time>2015-05-29T10:02:36.000Z</time>
      </trkpt>
      <trkpt lat="43.56781" lon="1.37679">
        <ele>160</ele>
        <time>2015-05-29T10:02:42.000Z</time>
      </trkpt>
      <trkpt lat="43.5679" lon="1.37662">
        <ele>159</ele>
        <time>2015-05-29T10:02:48.000Z</time>
      </trkpt>
      <trkpt lat="43.56799" lon="1.37647">
        <ele>160</ele>
        <time>2015-05-29T10:02:54.000Z</time>
      </trkpt>
      <trkpt lat="43.56798" lon="1.37645">
        <ele>160</ele>
        <time>2015-05-29T10:02:55.000Z</time>
      </trkpt>
      <trkpt lat="43.56797" lon="1.37643">
        <ele>160</ele>
        <time>2015-05-29T10:02:57.000Z</time>
      </trkpt>
      <trkpt lat="43.56798" lon="1.37644">
        <ele>160</ele>
        <time>2015-05-29T10:03:05.000Z</time>
      </trkpt>
      <trkpt lat="43.56799" lon="1.37642">
        <ele>160</ele>
        <time>2015-05-29T10:03:07.000Z</time>
      </trkpt>
      <trkpt lat="43.56802" lon="1.37637">
        <ele>160</ele>
        <time>2015-05-29T10:03:10.000Z</time>
      </trkpt>
      <trkpt lat="43.56812" lon="1.37629">
        <ele>160</ele>
        <time>2015-05-29T10:03:15.000Z</time>
      </trkpt>
      <trkpt lat="43.56818" lon="1.37614">
        <ele>159</ele>
        <time>2015-05-29T10:03:19.000Z</time>
      </trkpt>
      <trkpt lat="43.56821" lon="1.37597">
        <ele>159</ele>
        <time>2015-05-29T10:03:24.000Z</time>
      </trkpt>
      <trkpt lat="43.56821" lon="1.37579">
        <ele>159</ele>
        <time>2015-05-29T10:03:29.000Z</time>
      </trkpt>
      <trkpt lat="43.56824" lon="1.37558">
        <ele>159</ele>
        <time>2015-05-29T10:03:35.000Z</time>
      </trkpt>
      <trkpt lat="43.56826" lon="1.37541">
        <ele>159</ele>
        <time>2015-05-29T10:03:40.000Z</time>
      </trkpt>
      <trkpt lat="43.5683" lon="1.37523">
        <ele>159</ele>
        <time>2015-05-29T10:03:45.000Z</time>
      </trkpt>
      <trkpt lat="43.56832" lon="1.37503">
        <ele>158</ele>
        <time>2015-05-29T10:03:51.000Z</time>
      </trkpt>
      <trkpt lat="43.56834" lon="1.3749">
        <ele>158</ele>
        <time>2015-05-29T10:03:55.000Z</time>
      </trkpt>
      <trkpt lat="43.56837" lon="1.3747">
        <ele>157</ele>
        <time>2015-05-29T10:04:01.000Z</time>
      </trkpt>
      <trkpt lat="43.56842" lon="1.3746">
        <ele>157</ele>
        <time>2015-05-29T10:04:05.000Z</time>
      </trkpt>
      <trkpt lat="43.56843" lon="1.37459">
        <ele>157</ele>
        <time>2015-05-29T10:04:06.000Z</time>
      </trkpt>
      <trkpt lat="43.56854" lon="1.3746">
        <ele>157</ele>
        <time>2015-05-29T10:04:11.000Z</time>
      </trkpt>
      <trkpt lat="43.5686" lon="1.37446">
        <ele>157</ele>
        <time>2015-05-29T10:04:15.000Z</time>
      </trkpt>
      <trkpt lat="43.56864" lon="1.37425">
        <ele>157</ele>
        <time>2015-05-29T10:04:21.000Z</time>
      </trkpt>
      <trkpt lat="43.56867" lon="1.37414">
        <ele>157</ele>
        <time>2015-05-29T10:04:25.000Z</time>
      </trkpt>
      <trkpt lat="43.56873" lon="1.37399">
        <ele>157</ele>
        <time>2015-05-29T10:04:30.000Z</time>
      </trkpt>
      <trkpt lat="43.56881" lon="1.37384">
        <ele>157</ele>
        <time>2015-05-29T10:04:35.000Z</time>
      </trkpt>
      <trkpt lat="43.5689" lon="1.37366">
        <ele>157</ele>
        <time>2015-05-29T10:04:41.000Z</time>
      </trkpt>
      <trkpt lat="43.569" lon="1.37346">
        <ele>157</ele>
        <time>2015-05-29T10:04:48.000Z</time>
      </trkpt>
      <trkpt lat="43.56909" lon="1.37329">
        <ele>158</ele>
        <time>2015-05-29T10:04:54.000Z</time>
      </trkpt>
      <trkpt lat="43.56919" lon="1.37317">
        <ele>159</ele>
        <time>2015-05-29T10:05:00.000Z</time>
      </trkpt>
      <trkpt lat="43.56929" lon="1.37305">
        <ele>159</ele>
        <time>2015-05-29T10:05:06.000Z</time>
      </trkpt>
      <trkpt lat="43.56937" lon="1.37292">
        <ele>159</ele>
        <time>2015-05-29T10:05:11.000Z</time>
      </trkpt>
      <trkpt lat="43.56948" lon="1.37274">
        <ele>159</ele>
        <time>2015-05-29T10:05:17.000Z</time>
      </trkpt>
      <trkpt lat="43.56955" lon="1.37259">
        <ele>159</ele>
        <time>2015-05-29T10:05:22.000Z</time>
      </trkpt>
      <trkpt lat="43.56962" lon="1.37247">
        <ele>159</ele>
        <time>2015-05-29T10:05:26.000Z</time>
      </trkpt>
      <trkpt lat="43.5697" lon="1.37236">
        <ele>159</ele>
        <time>2015-05-29T10:05:31.000Z</time>
      </trkpt>
      <trkpt lat="43.56979" lon="1.37228">
        <ele>160</ele>
        <time>2015-05-29T10:05:36.000Z</time>
      </trkpt>
      <trkpt lat="43.5699" lon="1.3722">
        <ele>160</ele>
        <time>2015-05-29T10:05:41.000Z</time>
      </trkpt>
      <trkpt lat="43.57001" lon="1.37213">
        <ele>160</ele>
        <time>2015-05-29T10:05:46.000Z</time>
      </trkpt>
      <trkpt lat="43.57016" lon="1.37207">
        <ele>160</ele>
        <time>2015-05-29T10:05:52.000Z</time>
      </trkpt>
      <trkpt lat="43.57027" lon="1.37199">
        <ele>160</ele>
        <time>2015-05-29T10:05:57.000Z</time>
      </trkpt>
      <trkpt lat="43.57038" lon="1.3719">
        <ele>160</ele>
        <time>2015-05-29T10:06:02.000Z</time>
      </trkpt>
      <trkpt lat="43.57049" lon="1.37175">
        <ele>160</ele>
        <time>2015-05-29T10:06:08.000Z</time>
      </trkpt>
      <trkpt lat="43.57059" lon="1.37158">
        <ele>160</ele>
        <time>2015-05-29T10:06:14.000Z</time>
      </trkpt>
      <trkpt lat="43.57068" lon="1.37152">
        <ele>160</ele>
        <time>2015-05-29T10:06:19.000Z</time>
      </trkpt>
      <trkpt lat="43.57078" lon="1.37155">
        <ele>160</ele>
        <time>2015-05-29T10:06:24.000Z</time>
      </trkpt>
      <trkpt lat="43.57083" lon="1.37152">
        <ele>160</ele>
        <time>2015-05-29T10:06:28.000Z</time>
      </trkpt>
      <trkpt lat="43.57085" lon="1.37149">
        <ele>160</ele>
        <time>2015-05-29T10:06:29.000Z</time>
      </trkpt>
      <trkpt lat="43.57095" lon="1.37126">
        <ele>159</ele>
        <time>2015-05-29T10:06:36.000Z</time>
      </trkpt>
      <trkpt lat="43.57101" lon="1.3711">
        <ele>159</ele>
        <time>2015-05-29T10:06:41.000Z</time>
      </trkpt>
      <trkpt lat="43.57108" lon="1.37094">
        <ele>159</ele>
        <time>2015-05-29T10:06:46.000Z</time>
      </trkpt>
      <trkpt lat="43.57115" lon="1.37078">
        <ele>159</ele>
        <time>2015-05-29T10:06:51.000Z</time>
      </trkpt>
      <trkpt lat="43.5712" lon="1.37062">
        <ele>159</ele>
        <time>2015-05-29T10:06:56.000Z</time>
      </trkpt>
      <trkpt lat="43.57126" lon="1.37047">
        <ele>158</ele>
        <time>2015-05-29T10:07:01.000Z</time>
      </trkpt>
      <trkpt lat="43.57135" lon="1.37027">
        <ele>158</ele>
        <time>2015-05-29T10:07:07.000Z</time>
      </trkpt>
      <trkpt lat="43.5714" lon="1.37008">
        <ele>158</ele>
        <time>2015-05-29T10:07:13.000Z</time>
      </trkpt>
      <trkpt lat="43.57145" lon="1.36991">
        <ele>158</ele>
        <time>2015-05-29T10:07:18.000Z</time>
      </trkpt>
      <trkpt lat="43.57151" lon="1.36971">
        <ele>158</ele>
        <time>2015-05-29T10:07:24.000Z</time>
      </trkpt>
      <trkpt lat="43.57154" lon="1.36958">
        <ele>158</ele>
        <time>2015-05-29T10:07:28.000Z</time>
      </trkpt>
      <trkpt lat="43.57157" lon="1.36942">
        <ele>158</ele>
        <time>2015-05-29T10:07:33.000Z</time>
      </trkpt>
      <trkpt lat="43.57161" lon="1.36926">
        <ele>158</ele>
        <time>2015-05-29T10:07:38.000Z</time>
      </trkpt>
      <trkpt lat="43.57165" lon="1.36906">
        <ele>158</ele>
        <time>2015-05-29T10:07:44.000Z</time>
      </trkpt>
      <trkpt lat="43.57167" lon="1.36884">
        <ele>157</ele>
        <time>2015-05-29T10:07:50.000Z</time>
      </trkpt>
      <trkpt lat="43.5717" lon="1.36867">
        <ele>157</ele>
        <time>2015-05-29T10:07:55.000Z</time>
      </trkpt>
      <trkpt lat="43.5717" lon="1.36857">
        <ele>156</ele>
        <time>2015-05-29T10:07:58.000Z</time>
      </trkpt>
      <trkpt lat="43.5717" lon="1.3685">
        <ele>156</ele>
        <time>2015-05-29T10:08:00.000Z</time>
      </trkpt>
      <trkpt lat="43.5717" lon="1.36832">
        <ele>155</ele>
        <time>2015-05-29T10:08:05.000Z</time>
      </trkpt>
      <trkpt lat="43.5717" lon="1.36823">
        <ele>155</ele>
        <time>2015-05-29T10:08:08.000Z</time>
      </trkpt>
      <trkpt lat="43.57166" lon="1.36819">
        <ele>156</ele>
        <time>2015-05-29T10:08:10.000Z</time>
      </trkpt>
      <trkpt lat="43.5715" lon="1.36809">
        <ele>157</ele>
        <time>2015-05-29T10:08:12.000Z</time>
      </trkpt>
      <trkpt lat="43.57135" lon="1.368">
        <ele>157</ele>
        <time>2015-05-29T10:08:14.000Z</time>
      </trkpt>
      <trkpt lat="43.5713" lon="1.36795">
        <ele>157</ele>
        <time>2015-05-29T10:08:17.000Z</time>
      </trkpt>
      <trkpt lat="43.57126" lon="1.3679">
        <ele>157</ele>
        <time>2015-05-29T10:08:20.000Z</time>
      </trkpt>
      <trkpt lat="43.5712" lon="1.36785">
        <ele>158</ele>
        <time>2015-05-29T10:08:23.000Z</time>
      </trkpt>
      <trkpt lat="43.57113" lon="1.36779">
        <ele>158</ele>
        <time>2015-05-29T10:08:28.000Z</time>
      </trkpt>
      <trkpt lat="43.57104" lon="1.3677">
        <ele>158</ele>
        <time>2015-05-29T10:08:33.000Z</time>
      </trkpt>
      <trkpt lat="43.57094" lon="1.36758">
        <ele>159</ele>
        <time>2015-05-29T10:08:38.000Z</time>
      </trkpt>
      <trkpt lat="43.57085" lon="1.36744">
        <ele>159</ele>
        <time>2015-05-29T10:08:43.000Z</time>
      </trkpt>
      <trkpt lat="43.57076" lon="1.3673">
        <ele>159</ele>
        <time>2015-05-29T10:08:47.000Z</time>
      </trkpt>
      <trkpt lat="43.57065" lon="1.36712">
        <ele>159</ele>
        <time>2015-05-29T10:08:52.000Z</time>
      </trkpt>
      <trkpt lat="43.57056" lon="1.367">
        <ele>158</ele>
        <time>2015-05-29T10:08:56.000Z</time>
      </trkpt>
      <trkpt lat="43.57044" lon="1.36681">
        <ele>158</ele>
        <time>2015-05-29T10:09:01.000Z</time>
      </trkpt>
      <trkpt lat="43.57032" lon="1.36667">
        <ele>159</ele>
        <time>2015-05-29T10:09:05.000Z</time>
      </trkpt>
      <trkpt lat="43.5702" lon="1.36655">
        <ele>158</ele>
        <time>2015-05-29T10:09:10.000Z</time>
      </trkpt>
      <trkpt lat="43.57009" lon="1.36643">
        <ele>157</ele>
        <time>2015-05-29T10:09:14.000Z</time>
      </trkpt>
      <trkpt lat="43.56995" lon="1.36629">
        <ele>158</ele>
        <time>2015-05-29T10:09:19.000Z</time>
      </trkpt>
      <trkpt lat="43.5698" lon="1.36614">
        <ele>158</ele>
        <time>2015-05-29T10:09:25.000Z</time>
      </trkpt>
      <trkpt lat="43.56966" lon="1.366">
        <ele>158</ele>
        <time>2015-05-29T10:09:30.000Z</time>
      </trkpt>
      <trkpt lat="43.5695" lon="1.36583">
        <ele>158</ele>
        <time>2015-05-29T10:09:36.000Z</time>
      </trkpt>
      <trkpt lat="43.56947" lon="1.3658">
        <ele>158</ele>
        <time>2015-05-29T10:09:37.000Z</time>
      </trkpt>
      <trkpt lat="43.56931" lon="1.36567">
        <ele>158</ele>
        <time>2015-05-29T10:09:42.000Z</time>
      </trkpt>
      <trkpt lat="43.56917" lon="1.36552">
        <ele>158</ele>
        <time>2015-05-29T10:09:47.000Z</time>
      </trkpt>
      <trkpt lat="43.56912" lon="1.36546">
        <ele>159</ele>
        <time>2015-05-29T10:09:49.000Z</time>
      </trkpt>
      <trkpt lat="43.56897" lon="1.36529">
        <ele>158</ele>
        <time>2015-05-29T10:09:54.000Z</time>
      </trkpt>
      <trkpt lat="43.56886" lon="1.36513">
        <ele>158</ele>
        <time>2015-05-29T10:09:59.000Z</time>
      </trkpt>
      <trkpt lat="43.56869" lon="1.36496">
        <ele>157</ele>
        <time>2015-05-29T10:10:05.000Z</time>
      </trkpt>
      <trkpt lat="43.56855" lon="1.36479">
        <ele>158</ele>
        <time>2015-05-29T10:10:11.000Z</time>
      </trkpt>
      <trkpt lat="43.56847" lon="1.36461">
        <ele>157</ele>
        <time>2015-05-29T10:10:15.000Z</time>
      </trkpt>
      <trkpt lat="43.56842" lon="1.36437">
        <ele>156</ele>
        <time>2015-05-29T10:10:20.000Z</time>
      </trkpt>
      <trkpt lat="43.56838" lon="1.36413">
        <ele>155</ele>
        <time>2015-05-29T10:10:25.000Z</time>
      </trkpt>
      <trkpt lat="43.56831" lon="1.36392">
        <ele>156</ele>
        <time>2015-05-29T10:10:29.000Z</time>
      </trkpt>
      <trkpt lat="43.56822" lon="1.36375">
        <ele>157</ele>
        <time>2015-05-29T10:10:33.000Z</time>
      </trkpt>
      <trkpt lat="43.56814" lon="1.36358">
        <ele>157</ele>
        <time>2015-05-29T10:10:37.000Z</time>
      </trkpt>
      <trkpt lat="43.56804" lon="1.3634">
        <ele>157</ele>
        <time>2015-05-29T10:10:42.000Z</time>
      </trkpt>
      <trkpt lat="43.56795" lon="1.36325">
        <ele>158</ele>
        <time>2015-05-29T10:10:46.000Z</time>
      </trkpt>
      <trkpt lat="43.56792" lon="1.36318">
        <ele>158</ele>
        <time>2015-05-29T10:10:48.000Z</time>
      </trkpt>
      <trkpt lat="43.56787" lon="1.3631">
        <ele>158</ele>
        <time>2015-05-29T10:10:50.000Z</time>
      </trkpt>
      <trkpt lat="43.56783" lon="1.36299">
        <ele>158</ele>
        <time>2015-05-29T10:10:54.000Z</time>
      </trkpt>
      <trkpt lat="43.56779" lon="1.36292">
        <ele>158</ele>
        <time>2015-05-29T10:10:58.000Z</time>
      </trkpt>
      <trkpt lat="43.56777" lon="1.36291">
        <ele>158</ele>
        <time>2015-05-29T10:10:59.000Z</time>
      </trkpt>
      <trkpt lat="43.56777" lon="1.36283">
        <ele>158</ele>
        <time>2015-05-29T10:11:03.000Z</time>
      </trkpt>
      <trkpt lat="43.56775" lon="1.36275">
        <ele>158</ele>
        <time>2015-05-29T10:11:06.000Z</time>
      </trkpt>
      <trkpt lat="43.56774" lon="1.36269">
        <ele>158</ele>
        <time>2015-05-29T10:11:08.000Z</time>
      </trkpt>
      <trkpt lat="43.56774" lon="1.36254">
        <ele>158</ele>
        <time>2015-05-29T10:11:13.000Z</time>
      </trkpt>
      <trkpt lat="43.56777" lon="1.3624">
        <ele>158</ele>
        <time>2015-05-29T10:11:18.000Z</time>
      </trkpt>
      <trkpt lat="43.56777" lon="1.36238">
        <ele>158</ele>
        <time>2015-05-29T10:11:19.000Z</time>
      </trkpt>
      <trkpt lat="43.56777" lon="1.36231">
        <ele>158</ele>
        <time>2015-05-29T10:11:22.000Z</time>
      </trkpt>
      <trkpt lat="43.56785" lon="1.36216">
        <ele>158</ele>
        <time>2015-05-29T10:11:27.000Z</time>
      </trkpt>
      <trkpt lat="43.56788" lon="1.36211">
        <ele>158</ele>
        <time>2015-05-29T10:11:29.000Z</time>
      </trkpt>
      <trkpt lat="43.56792" lon="1.36204">
        <ele>158</ele>
        <time>2015-05-29T10:11:32.000Z</time>
      </trkpt>
      <trkpt lat="43.56802" lon="1.36188">
        <ele>158</ele>
        <time>2015-05-29T10:11:38.000Z</time>
      </trkpt>
      <trkpt lat="43.56812" lon="1.36171">
        <ele>157</ele>
        <time>2015-05-29T10:11:44.000Z</time>
      </trkpt>
      <trkpt lat="43.56819" lon="1.36156">
        <ele>157</ele>
        <time>2015-05-29T10:11:49.000Z</time>
      </trkpt>
      <trkpt lat="43.56819" lon="1.36138">
        <ele>157</ele>
        <time>2015-05-29T10:11:54.000Z</time>
      </trkpt>
      <trkpt lat="43.56818" lon="1.36121">
        <ele>157</ele>
        <time>2015-05-29T10:11:59.000Z</time>
      </trkpt>
      <trkpt lat="43.56817" lon="1.36119">
        <ele>158</ele>
        <time>2015-05-29T10:12:00.000Z</time>
      </trkpt>
      <trkpt lat="43.56816" lon="1.36109">
        <ele>157</ele>
        <time>2015-05-29T10:12:03.000Z</time>
      </trkpt>
      <trkpt lat="43.56814" lon="1.36103">
        <ele>157</ele>
        <time>2015-05-29T10:12:05.000Z</time>
      </trkpt>
      <trkpt lat="43.56814" lon="1.36093">
        <ele>157</ele>
        <time>2015-05-29T10:12:08.000Z</time>
      </trkpt>
      <trkpt lat="43.56811" lon="1.36078">
        <ele>157</ele>
        <time>2015-05-29T10:12:13.000Z</time>
      </trkpt>
      <trkpt lat="43.56807" lon="1.36059">
        <ele>157</ele>
        <time>2015-05-29T10:12:18.000Z</time>
      </trkpt>
      <trkpt lat="43.56808" lon="1.36034">
        <ele>157</ele>
        <time>2015-05-29T10:12:23.000Z</time>
      </trkpt>
      <trkpt lat="43.56813" lon="1.36016">
        <ele>157</ele>
        <time>2015-05-29T10:12:27.000Z</time>
      </trkpt>
      <trkpt lat="43.56819" lon="1.35995">
        <ele>156</ele>
        <time>2015-05-29T10:12:32.000Z</time>
      </trkpt>
      <trkpt lat="43.56827" lon="1.35977">
        <ele>157</ele>
        <time>2015-05-29T10:12:36.000Z</time>
      </trkpt>
      <trkpt lat="43.56837" lon="1.35956">
        <ele>155</ele>
        <time>2015-05-29T10:12:41.000Z</time>
      </trkpt>
      <trkpt lat="43.56839" lon="1.35952">
        <ele>155</ele>
        <time>2015-05-29T10:12:42.000Z</time>
      </trkpt>
      <trkpt lat="43.56852" lon="1.35939">
        <ele>155</ele>
        <time>2015-05-29T10:12:46.000Z</time>
      </trkpt>
      <trkpt lat="43.56863" lon="1.35925">
        <ele>155</ele>
        <time>2015-05-29T10:12:51.000Z</time>
      </trkpt>
      <trkpt lat="43.56867" lon="1.35917">
        <ele>155</ele>
        <time>2015-05-29T10:12:55.000Z</time>
      </trkpt>
      <trkpt lat="43.56877" lon="1.35907">
        <ele>155</ele>
        <time>2015-05-29T10:12:59.000Z</time>
      </trkpt>
      <trkpt lat="43.5689" lon="1.35896">
        <ele>155</ele>
        <time>2015-05-29T10:13:04.000Z</time>
      </trkpt>
      <trkpt lat="43.56896" lon="1.35893">
        <ele>155</ele>
        <time>2015-05-29T10:13:06.000Z</time>
      </trkpt>
      <trkpt lat="43.56901" lon="1.3589">
        <ele>155</ele>
        <time>2015-05-29T10:13:08.000Z</time>
      </trkpt>
      <trkpt lat="43.56906" lon="1.35887">
        <ele>155</ele>
        <time>2015-05-29T10:13:10.000Z</time>
      </trkpt>
      <trkpt lat="43.56916" lon="1.35883">
        <ele>155</ele>
        <time>2015-05-29T10:13:13.000Z</time>
      </trkpt>
      <trkpt lat="43.56933" lon="1.35876">
        <ele>157</ele>
        <time>2015-05-29T10:13:18.000Z</time>
      </trkpt>
      <trkpt lat="43.56949" lon="1.35865">
        <ele>157</ele>
        <time>2015-05-29T10:13:23.000Z</time>
      </trkpt>
      <trkpt lat="43.56962" lon="1.35854">
        <ele>158</ele>
        <time>2015-05-29T10:13:27.000Z</time>
      </trkpt>
      <trkpt lat="43.56978" lon="1.35836">
        <ele>160</ele>
        <time>2015-05-29T10:13:33.000Z</time>
      </trkpt>
      <trkpt lat="43.56995" lon="1.35816">
        <ele>163</ele>
        <time>2015-05-29T10:13:39.000Z</time>
      </trkpt>
      <trkpt lat="43.57008" lon="1.35801">
        <ele>166</ele>
        <time>2015-05-29T10:13:44.000Z</time>
      </trkpt>
      <trkpt lat="43.57022" lon="1.35786">
        <ele>166</ele>
        <time>2015-05-29T10:13:50.000Z</time>
      </trkpt>
      <trkpt lat="43.57035" lon="1.35769">
        <ele>166</ele>
        <time>2015-05-29T10:13:54.000Z</time>
      </trkpt>
      <trkpt lat="43.57047" lon="1.35748">
        <ele>165</ele>
        <time>2015-05-29T10:13:59.000Z</time>
      </trkpt>
      <trkpt lat="43.57051" lon="1.3574">
        <ele>165</ele>
        <time>2015-05-29T10:14:01.000Z</time>
      </trkpt>
      <trkpt lat="43.57057" lon="1.35731">
        <ele>164</ele>
        <time>2015-05-29T10:14:03.000Z</time>
      </trkpt>
      <trkpt lat="43.57066" lon="1.35717">
        <ele>164</ele>
        <time>2015-05-29T10:14:06.000Z</time>
      </trkpt>
      <trkpt lat="43.5707" lon="1.35706">
        <ele>163</ele>
        <time>2015-05-29T10:14:08.000Z</time>
      </trkpt>
      <trkpt lat="43.57073" lon="1.35683">
        <ele>161</ele>
        <time>2015-05-29T10:14:12.000Z</time>
      </trkpt>
      <trkpt lat="43.57075" lon="1.35661">
        <ele>158</ele>
        <time>2015-05-29T10:14:16.000Z</time>
      </trkpt>
      <trkpt lat="43.57076" lon="1.35651">
        <ele>159</ele>
        <time>2015-05-29T10:14:18.000Z</time>
      </trkpt>
      <trkpt lat="43.57077" lon="1.35636">
        <ele>160</ele>
        <time>2015-05-29T10:14:21.000Z</time>
      </trkpt>
      <trkpt lat="43.57079" lon="1.35626">
        <ele>160</ele>
        <time>2015-05-29T10:14:23.000Z</time>
      </trkpt>
      <trkpt lat="43.57079" lon="1.35617">
        <ele>160</ele>
        <time>2015-05-29T10:14:25.000Z</time>
      </trkpt>
      <trkpt lat="43.57083" lon="1.35602">
        <ele>159</ele>
        <time>2015-05-29T10:14:29.000Z</time>
      </trkpt>
      <trkpt lat="43.57084" lon="1.35599">
        <ele>157</ele>
        <time>2015-05-29T10:14:32.000Z</time>
      </trkpt>
      <trkpt lat="43.57085" lon="1.35598">
        <ele>157</ele>
        <time>2015-05-29T10:14:33.000Z</time>
      </trkpt>
      <trkpt lat="43.57088" lon="1.35593">
        <ele>157</ele>
        <time>2015-05-29T10:14:38.000Z</time>
      </trkpt>
      <trkpt lat="43.57091" lon="1.35586">
        <ele>157</ele>
        <time>2015-05-29T10:14:43.000Z</time>
      </trkpt>
      <trkpt lat="43.57092" lon="1.35585">
        <ele>157</ele>
        <time>2015-05-29T10:14:44.000Z</time>
      </trkpt>
      <trkpt lat="43.57098" lon="1.35579">
        <ele>157</ele>
        <time>2015-05-29T10:14:50.000Z</time>
      </trkpt>
      <trkpt lat="43.57106" lon="1.35568">
        <ele>157</ele>
        <time>2015-05-29T10:14:58.000Z</time>
      </trkpt>
      <trkpt lat="43.57107" lon="1.35566">
        <ele>157</ele>
        <time>2015-05-29T10:15:01.000Z</time>
      </trkpt>
      <trkpt lat="43.57108" lon="1.35561">
        <ele>157</ele>
        <time>2015-05-29T10:15:04.000Z</time>
      </trkpt>
      <trkpt lat="43.57109" lon="1.35559">
        <ele>157</ele>
        <time>2015-05-29T10:15:05.000Z</time>
      </trkpt>
      <trkpt lat="43.57114" lon="1.35553">
        <ele>157</ele>
        <time>2015-05-29T10:15:09.000Z</time>
      </trkpt>
      <trkpt lat="43.57118" lon="1.35547">
        <ele>157</ele>
        <time>2015-05-29T10:15:13.000Z</time>
      </trkpt>
      <trkpt lat="43.57123" lon="1.3554">
        <ele>157</ele>
        <time>2015-05-29T10:15:18.000Z</time>
      </trkpt>
      <trkpt lat="43.57128" lon="1.35531">
        <ele>157</ele>
        <time>2015-05-29T10:15:24.000Z</time>
      </trkpt>
      <trkpt lat="43.57134" lon="1.35523">
        <ele>157</ele>
        <time>2015-05-29T10:15:30.000Z</time>
      </trkpt>
      <trkpt lat="43.57138" lon="1.35518">
        <ele>157</ele>
        <time>2015-05-29T10:15:33.000Z</time>
      </trkpt>
      <trkpt lat="43.57138" lon="1.35515">
        <ele>157</ele>
        <time>2015-05-29T10:15:34.000Z</time>
      </trkpt>
      <trkpt lat="43.5714" lon="1.35508">
        <ele>157</ele>
        <time>2015-05-29T10:15:37.000Z</time>
      </trkpt>
      <trkpt lat="43.57142" lon="1.35503">
        <ele>157</ele>
        <time>2015-05-29T10:15:39.000Z</time>
      </trkpt>
      <trkpt lat="43.57147" lon="1.35483">
        <ele>157</ele>
        <time>2015-05-29T10:15:45.000Z</time>
      </trkpt>
      <trkpt lat="43.57151" lon="1.35461">
        <ele>157</ele>
        <time>2015-05-29T10:15:51.000Z</time>
      </trkpt>
      <trkpt lat="43.57157" lon="1.35445">
        <ele>157</ele>
        <time>2015-05-29T10:15:55.000Z</time>
      </trkpt>
      <trkpt lat="43.57157" lon="1.3544">
        <ele>157</ele>
        <time>2015-05-29T10:15:56.000Z</time>
      </trkpt>
      <trkpt lat="43.57155" lon="1.35433">
        <ele>157</ele>
        <time>2015-05-29T10:15:58.000Z</time>
      </trkpt>
      <trkpt lat="43.57152" lon="1.35429">
        <ele>157</ele>
        <time>2015-05-29T10:15:59.000Z</time>
      </trkpt>
      <trkpt lat="43.57136" lon="1.35418">
        <ele>157</ele>
        <time>2015-05-29T10:16:03.000Z</time>
      </trkpt>
      <trkpt lat="43.57131" lon="1.35415">
        <ele>157</ele>
        <time>2015-05-29T10:16:04.000Z</time>
      </trkpt>
      <trkpt lat="43.57113" lon="1.35403">
        <ele>157</ele>
        <time>2015-05-29T10:16:08.000Z</time>
      </trkpt>
      <trkpt lat="43.57105" lon="1.35396">
        <ele>157</ele>
        <time>2015-05-29T10:16:10.000Z</time>
      </trkpt>
      <trkpt lat="43.57093" lon="1.35388">
        <ele>157</ele>
        <time>2015-05-29T10:16:13.000Z</time>
      </trkpt>
      <trkpt lat="43.5709" lon="1.35386">
        <ele>157</ele>
        <time>2015-05-29T10:16:14.000Z</time>
      </trkpt>
      <trkpt lat="43.57075" lon="1.35377">
        <ele>157</ele>
        <time>2015-05-29T10:16:18.000Z</time>
      </trkpt>
      <trkpt lat="43.57068" lon="1.35371">
        <ele>157</ele>
        <time>2015-05-29T10:16:20.000Z</time>
      </trkpt>
      <trkpt lat="43.57058" lon="1.35364">
        <ele>157</ele>
        <time>2015-05-29T10:16:23.000Z</time>
      </trkpt>
      <trkpt lat="43.57054" lon="1.35362">
        <ele>157</ele>
        <time>2015-05-29T10:16:24.000Z</time>
      </trkpt>
      <trkpt lat="43.57041" lon="1.35353">
        <ele>157</ele>
        <time>2015-05-29T10:16:28.000Z</time>
      </trkpt>
      <trkpt lat="43.57024" lon="1.3534">
        <ele>157</ele>
        <time>2015-05-29T10:16:33.000Z</time>
      </trkpt>
      <trkpt lat="43.5701" lon="1.35328">
        <ele>157</ele>
        <time>2015-05-29T10:16:37.000Z</time>
      </trkpt>
      <trkpt lat="43.56992" lon="1.35318">
        <ele>159</ele>
        <time>2015-05-29T10:16:42.000Z</time>
      </trkpt>
      <trkpt lat="43.56974" lon="1.35308">
        <ele>160</ele>
        <time>2015-05-29T10:16:47.000Z</time>
      </trkpt>
      <trkpt lat="43.56967" lon="1.35304">
        <ele>160</ele>
        <time>2015-05-29T10:16:49.000Z</time>
      </trkpt>
      <trkpt lat="43.56949" lon="1.35293">
        <ele>161</ele>
        <time>2015-05-29T10:16:54.000Z</time>
      </trkpt>
      <trkpt lat="43.56931" lon="1.35281">
        <ele>162</ele>
        <time>2015-05-29T10:16:59.000Z</time>
      </trkpt>
      <trkpt lat="43.56921" lon="1.35272">
        <ele>162</ele>
        <time>2015-05-29T10:17:05.000Z</time>
      </trkpt>
      <trkpt lat="43.56907" lon="1.35258">
        <ele>165</ele>
        <time>2015-05-29T10:17:09.000Z</time>
      </trkpt>
      <trkpt lat="43.56892" lon="1.35241">
        <ele>163</ele>
        <time>2015-05-29T10:17:13.000Z</time>
      </trkpt>
      <trkpt lat="43.56888" lon="1.35238">
        <ele>163</ele>
        <time>2015-05-29T10:17:14.000Z</time>
      </trkpt>
      <trkpt lat="43.56882" lon="1.35233">
        <ele>164</ele>
        <time>2015-05-29T10:17:16.000Z</time>
      </trkpt>
      <trkpt lat="43.56875" lon="1.35226">
        <ele>164</ele>
        <time>2015-05-29T10:17:18.000Z</time>
      </trkpt>
      <trkpt lat="43.56869" lon="1.3522">
        <ele>164</ele>
        <time>2015-05-29T10:17:20.000Z</time>
      </trkpt>
      <trkpt lat="43.5686" lon="1.35212">
        <ele>164</ele>
        <time>2015-05-29T10:17:22.000Z</time>
      </trkpt>
      <trkpt lat="43.56843" lon="1.35191">
        <ele>163</ele>
        <time>2015-05-29T10:17:26.000Z</time>
      </trkpt>
      <trkpt lat="43.56833" lon="1.35177">
        <ele>165</ele>
        <time>2015-05-29T10:17:28.000Z</time>
      </trkpt>
      <trkpt lat="43.56818" lon="1.35164">
        <ele>162</ele>
        <time>2015-05-29T10:17:32.000Z</time>
      </trkpt>
      <trkpt lat="43.56815" lon="1.35163">
        <ele>162</ele>
        <time>2015-05-29T10:17:33.000Z</time>
      </trkpt>
      <trkpt lat="43.56803" lon="1.35153">
        <ele>162</ele>
        <time>2015-05-29T10:17:36.000Z</time>
      </trkpt>
      <trkpt lat="43.56796" lon="1.35149">
        <ele>162</ele>
        <time>2015-05-29T10:17:38.000Z</time>
      </trkpt>
      <trkpt lat="43.5679" lon="1.35145">
        <ele>162</ele>
        <time>2015-05-29T10:17:40.000Z</time>
      </trkpt>
      <trkpt lat="43.56781" lon="1.3514">
        <ele>162</ele>
        <time>2015-05-29T10:17:42.000Z</time>
      </trkpt>
      <trkpt lat="43.56775" lon="1.35137">
        <ele>162</ele>
        <time>2015-05-29T10:17:44.000Z</time>
      </trkpt>
      <trkpt lat="43.56771" lon="1.35135">
        <ele>162</ele>
        <time>2015-05-29T10:17:45.000Z</time>
      </trkpt>
      <trkpt lat="43.56767" lon="1.35132">
        <ele>162</ele>
        <time>2015-05-29T10:17:46.000Z</time>
      </trkpt>
      <trkpt lat="43.56764" lon="1.3513">
        <ele>162</ele>
        <time>2015-05-29T10:17:47.000Z</time>
      </trkpt>
      <trkpt lat="43.5676" lon="1.35128">
        <ele>162</ele>
        <time>2015-05-29T10:17:50.000Z</time>
      </trkpt>
      <trkpt lat="43.56757" lon="1.35123">
        <ele>161</ele>
        <time>2015-05-29T10:17:56.000Z</time>
      </trkpt>
      <trkpt lat="43.56752" lon="1.3512">
        <ele>161</ele>
        <time>2015-05-29T10:18:02.000Z</time>
      </trkpt>
      <trkpt lat="43.5675" lon="1.35118">
        <ele>164</ele>
        <time>2015-05-29T10:18:05.000Z</time>
      </trkpt>
      <trkpt lat="43.56747" lon="1.35115">
        <ele>163</ele>
        <time>2015-05-29T10:18:08.000Z</time>
      </trkpt>
      <trkpt lat="43.56746" lon="1.35114">
        <ele>163</ele>
        <time>2015-05-29T10:18:10.000Z</time>
      </trkpt>
      <trkpt lat="43.56741" lon="1.35109">
        <ele>163</ele>
        <time>2015-05-29T10:18:15.000Z</time>
      </trkpt>
      <trkpt lat="43.56737" lon="1.35106">
        <ele>163</ele>
        <time>2015-05-29T10:18:20.000Z</time>
      </trkpt>
      <trkpt lat="43.56736" lon="1.35105">
        <ele>163</ele>
        <time>2015-05-29T10:18:22.000Z</time>
      </trkpt>
      <trkpt lat="43.56733" lon="1.35103">
        <ele>163</ele>
        <time>2015-05-29T10:18:24.000Z</time>
      </trkpt>
      <trkpt lat="43.56731" lon="1.35102">
        <ele>163</ele>
        <time>2015-05-29T10:18:26.000Z</time>
      </trkpt>
      <trkpt lat="43.56728" lon="1.351">
        <ele>163</ele>
        <time>2015-05-29T10:18:30.000Z</time>
      </trkpt>
      <trkpt lat="43.56723" lon="1.35095">
        <ele>163</ele>
        <time>2015-05-29T10:18:35.000Z</time>
      </trkpt>
      <trkpt lat="43.56717" lon="1.3509">
        <ele>164</ele>
        <time>2015-05-29T10:18:42.000Z</time>
      </trkpt>
      <trkpt lat="43.5671" lon="1.35085">
        <ele>164</ele>
        <time>2015-05-29T10:18:48.000Z</time>
      </trkpt>
      <trkpt lat="43.567" lon="1.35077">
        <ele>161</ele>
        <time>2015-05-29T10:18:53.000Z</time>
      </trkpt>
      <trkpt lat="43.56688" lon="1.35067">
        <ele>162</ele>
        <time>2015-05-29T10:18:58.000Z</time>
      </trkpt>
      <trkpt lat="43.56676" lon="1.35057">
        <ele>162</ele>
        <time>2015-05-29T10:19:03.000Z</time>
      </trkpt>
      <trkpt lat="43.56665" lon="1.3505">
        <ele>164</ele>
        <time>2015-05-29T10:19:08.000Z</time>
      </trkpt>
      <trkpt lat="43.56654" lon="1.35045">
        <ele>163</ele>
        <time>2015-05-29T10:19:13.000Z</time>
      </trkpt>
      <trkpt lat="43.56648" lon="1.35042">
        <ele>163</ele>
        <time>2015-05-29T10:19:15.000Z</time>
      </trkpt>
      <trkpt lat="43.56641" lon="1.35036">
        <ele>163</ele>
        <time>2015-05-29T10:19:17.000Z</time>
      </trkpt>
      <trkpt lat="43.56625" lon="1.35023">
        <ele>163</ele>
        <time>2015-05-29T10:19:21.000Z</time>
      </trkpt>
      <trkpt lat="43.5662" lon="1.3502">
        <ele>163</ele>
        <time>2015-05-29T10:19:22.000Z</time>
      </trkpt>
      <trkpt lat="43.56604" lon="1.35006">
        <ele>163</ele>
        <time>2015-05-29T10:19:26.000Z</time>
      </trkpt>
      <trkpt lat="43.566" lon="1.35002">
        <ele>163</ele>
        <time>2015-05-29T10:19:27.000Z</time>
      </trkpt>
      <trkpt lat="43.5659" lon="1.34995">
        <ele>162</ele>
        <time>2015-05-29T10:19:30.000Z</time>
      </trkpt>
      <trkpt lat="43.56583" lon="1.3499">
        <ele>163</ele>
        <time>2015-05-29T10:19:32.000Z</time>
      </trkpt>
      <trkpt lat="43.5658" lon="1.34988">
        <ele>163</ele>
        <time>2015-05-29T10:19:33.000Z</time>
      </trkpt>
      <trkpt lat="43.56571" lon="1.34979">
        <ele>162</ele>
        <time>2015-05-29T10:19:36.000Z</time>
      </trkpt>
      <trkpt lat="43.56566" lon="1.34976">
        <ele>162</ele>
        <time>2015-05-29T10:19:37.000Z</time>
      </trkpt>
      <trkpt lat="43.56555" lon="1.34965">
        <ele>162</ele>
        <time>2015-05-29T10:19:40.000Z</time>
      </trkpt>
      <trkpt lat="43.56539" lon="1.34955">
        <ele>162</ele>
        <time>2015-05-29T10:19:45.000Z</time>
      </trkpt>
      <trkpt lat="43.56524" lon="1.34945">
        <ele>162</ele>
        <time>2015-05-29T10:19:49.000Z</time>
      </trkpt>
      <trkpt lat="43.56518" lon="1.34941">
        <ele>163</ele>
        <time>2015-05-29T10:19:51.000Z</time>
      </trkpt>
      <trkpt lat="43.56503" lon="1.34932">
        <ele>163</ele>
        <time>2015-05-29T10:19:56.000Z</time>
      </trkpt>
      <trkpt lat="43.5649" lon="1.34919">
        <ele>164</ele>
        <time>2015-05-29T10:20:00.000Z</time>
      </trkpt>
      <trkpt lat="43.56475" lon="1.34902">
        <ele>164</ele>
        <time>2015-05-29T10:20:05.000Z</time>
      </trkpt>
      <trkpt lat="43.56472" lon="1.349">
        <ele>164</ele>
        <time>2015-05-29T10:20:06.000Z</time>
      </trkpt>
      <trkpt lat="43.56461" lon="1.34886">
        <ele>164</ele>
        <time>2015-05-29T10:20:10.000Z</time>
      </trkpt>
      <trkpt lat="43.56447" lon="1.34866">
        <ele>164</ele>
        <time>2015-05-29T10:20:15.000Z</time>
      </trkpt>
      <trkpt lat="43.56445" lon="1.34862">
        <ele>164</ele>
        <time>2015-05-29T10:20:16.000Z</time>
      </trkpt>
      <trkpt lat="43.56433" lon="1.34841">
        <ele>164</ele>
        <time>2015-05-29T10:20:21.000Z</time>
      </trkpt>
      <trkpt lat="43.5643" lon="1.34835">
        <ele>164</ele>
        <time>2015-05-29T10:20:22.000Z</time>
      </trkpt>
      <trkpt lat="43.56422" lon="1.34823">
        <ele>163</ele>
        <time>2015-05-29T10:20:25.000Z</time>
      </trkpt>
      <trkpt lat="43.56418" lon="1.34814">
        <ele>163</ele>
        <time>2015-05-29T10:20:27.000Z</time>
      </trkpt>
      <trkpt lat="43.56413" lon="1.34807">
        <ele>164</ele>
        <time>2015-05-29T10:20:29.000Z</time>
      </trkpt>
      <trkpt lat="43.56406" lon="1.34796">
        <ele>164</ele>
        <time>2015-05-29T10:20:32.000Z</time>
      </trkpt>
      <trkpt lat="43.56407" lon="1.34775">
        <ele>163</ele>
        <time>2015-05-29T10:20:36.000Z</time>
      </trkpt>
      <trkpt lat="43.56412" lon="1.34751">
        <ele>161</ele>
        <time>2015-05-29T10:20:40.000Z</time>
      </trkpt>
      <trkpt lat="43.56414" lon="1.34732">
        <ele>162</ele>
        <time>2015-05-29T10:20:44.000Z</time>
      </trkpt>
      <trkpt lat="43.56403" lon="1.34711">
        <ele>163</ele>
        <time>2015-05-29T10:20:49.000Z</time>
      </trkpt>
      <trkpt lat="43.56383" lon="1.34695">
        <ele>163</ele>
        <time>2015-05-29T10:20:54.000Z</time>
      </trkpt>
      <trkpt lat="43.56364" lon="1.34686">
        <ele>163</ele>
        <time>2015-05-29T10:20:59.000Z</time>
      </trkpt>
      <trkpt lat="43.56353" lon="1.34684">
        <ele>164</ele>
        <time>2015-05-29T10:21:02.000Z</time>
      </trkpt>
      <trkpt lat="43.56343" lon="1.34694">
        <ele>164</ele>
        <time>2015-05-29T10:21:05.000Z</time>
      </trkpt>
      <trkpt lat="43.56337" lon="1.34705">
        <ele>164</ele>
        <time>2015-05-29T10:21:07.000Z</time>
      </trkpt>
      <trkpt lat="43.56332" lon="1.34719">
        <ele>166</ele>
        <time>2015-05-29T10:21:10.000Z</time>
      </trkpt>
      <trkpt lat="43.5633" lon="1.34722">
        <ele>166</ele>
        <time>2015-05-29T10:21:11.000Z</time>
      </trkpt>
      <trkpt lat="43.56328" lon="1.34729">
        <ele>166</ele>
        <time>2015-05-29T10:21:14.000Z</time>
      </trkpt>
      <trkpt lat="43.56327" lon="1.34733">
        <ele>165</ele>
        <time>2015-05-29T10:21:17.000Z</time>
      </trkpt>
      <trkpt lat="43.56325" lon="1.34737">
        <ele>165</ele>
        <time>2015-05-29T10:21:19.000Z</time>
      </trkpt>
      <trkpt lat="43.56321" lon="1.34748">
        <ele>165</ele>
        <time>2015-05-29T10:21:27.000Z</time>
      </trkpt>
      <trkpt lat="43.56318" lon="1.34752">
        <ele>165</ele>
        <time>2015-05-29T10:21:30.000Z</time>
      </trkpt>
      <trkpt lat="43.56316" lon="1.34758">
        <ele>166</ele>
        <time>2015-05-29T10:21:33.000Z</time>
      </trkpt>
      <trkpt lat="43.56315" lon="1.34762">
        <ele>166</ele>
        <time>2015-05-29T10:21:36.000Z</time>
      </trkpt>
      <trkpt lat="43.56313" lon="1.34771">
        <ele>166</ele>
        <time>2015-05-29T10:21:40.000Z</time>
      </trkpt>
      <trkpt lat="43.56309" lon="1.34777">
        <ele>166</ele>
        <time>2015-05-29T10:21:47.000Z</time>
      </trkpt>
      <trkpt lat="43.56305" lon="1.3477">
        <ele>166</ele>
        <time>2015-05-29T10:21:52.000Z</time>
      </trkpt>
      <trkpt lat="43.56302" lon="1.34769">
        <ele>167</ele>
        <time>2015-05-29T10:21:58.000Z</time>
      </trkpt>
      <trkpt lat="43.563" lon="1.34768">
        <ele>167</ele>
        <time>2015-05-29T10:21:59.000Z</time>
      </trkpt>
      <trkpt lat="43.56299" lon="1.34767">
        <ele>167</ele>
        <time>2015-05-29T10:22:01.000Z</time>
      </trkpt>
      <trkpt lat="43.56294" lon="1.34763">
        <ele>167</ele>
        <time>2015-05-29T10:22:06.000Z</time>
      </trkpt>
      <trkpt lat="43.56287" lon="1.34762">
        <ele>167</ele>
        <time>2015-05-29T10:22:11.000Z</time>
      </trkpt>
      <trkpt lat="43.56275" lon="1.34761">
        <ele>167</ele>
        <time>2015-05-29T10:22:16.000Z</time>
      </trkpt>
      <trkpt lat="43.56269" lon="1.34763">
        <ele>168</ele>
        <time>2015-05-29T10:22:18.000Z</time>
      </trkpt>
      <trkpt lat="43.56261" lon="1.34766">
        <ele>168</ele>
        <time>2015-05-29T10:22:21.000Z</time>
      </trkpt>
      <trkpt lat="43.56243" lon="1.34767">
        <ele>168</ele>
        <time>2015-05-29T10:22:27.000Z</time>
      </trkpt>
      <trkpt lat="43.56228" lon="1.34772">
        <ele>168</ele>
        <time>2015-05-29T10:22:32.000Z</time>
      </trkpt>
      <trkpt lat="43.56212" lon="1.3478">
        <ele>168</ele>
        <time>2015-05-29T10:22:37.000Z</time>
      </trkpt>
      <trkpt lat="43.56196" lon="1.34788">
        <ele>167</ele>
        <time>2015-05-29T10:22:41.000Z</time>
      </trkpt>
      <trkpt lat="43.56177" lon="1.34802">
        <ele>167</ele>
        <time>2015-05-29T10:22:46.000Z</time>
      </trkpt>
      <trkpt lat="43.56165" lon="1.34805">
        <ele>166</ele>
        <time>2015-05-29T10:22:49.000Z</time>
      </trkpt>
      <trkpt lat="43.56157" lon="1.34805">
        <ele>166</ele>
        <time>2015-05-29T10:22:51.000Z</time>
      </trkpt>
      <trkpt lat="43.56149" lon="1.34805">
        <ele>166</ele>
        <time>2015-05-29T10:22:53.000Z</time>
      </trkpt>
      <trkpt lat="43.56135" lon="1.34805">
        <ele>165</ele>
        <time>2015-05-29T10:22:57.000Z</time>
      </trkpt>
      <trkpt lat="43.56123" lon="1.34803">
        <ele>165</ele>
        <time>2015-05-29T10:23:01.000Z</time>
      </trkpt>
      <trkpt lat="43.5611" lon="1.34795">
        <ele>165</ele>
        <time>2015-05-29T10:23:05.000Z</time>
      </trkpt>
      <trkpt lat="43.56101" lon="1.34784">
        <ele>165</ele>
        <time>2015-05-29T10:23:09.000Z</time>
      </trkpt>
      <trkpt lat="43.56091" lon="1.34763">
        <ele>165</ele>
        <time>2015-05-29T10:23:14.000Z</time>
      </trkpt>
      <trkpt lat="43.5608" lon="1.34742">
        <ele>165</ele>
        <time>2015-05-29T10:23:18.000Z</time>
      </trkpt>
      <trkpt lat="43.56078" lon="1.34731">
        <ele>165</ele>
        <time>2015-05-29T10:23:20.000Z</time>
      </trkpt>
      <trkpt lat="43.56079" lon="1.3472">
        <ele>165</ele>
        <time>2015-05-29T10:23:22.000Z</time>
      </trkpt>
      <trkpt lat="43.56082" lon="1.34708">
        <ele>165</ele>
        <time>2015-05-29T10:23:24.000Z</time>
      </trkpt>
      <trkpt lat="43.56083" lon="1.34703">
        <ele>166</ele>
        <time>2015-05-29T10:23:25.000Z</time>
      </trkpt>
      <trkpt lat="43.56085" lon="1.34693">
        <ele>167</ele>
        <time>2015-05-29T10:23:27.000Z</time>
      </trkpt>
      <trkpt lat="43.56086" lon="1.34688">
        <ele>166</ele>
        <time>2015-05-29T10:23:28.000Z</time>
      </trkpt>
      <trkpt lat="43.56084" lon="1.34673">
        <ele>166</ele>
        <time>2015-05-29T10:23:31.000Z</time>
      </trkpt>
      <trkpt lat="43.56079" lon="1.34651">
        <ele>166</ele>
        <time>2015-05-29T10:23:35.000Z</time>
      </trkpt>
      <trkpt lat="43.56078" lon="1.34634">
        <ele>166</ele>
        <time>2015-05-29T10:23:38.000Z</time>
      </trkpt>
      <trkpt lat="43.56077" lon="1.34618">
        <ele>167</ele>
        <time>2015-05-29T10:23:41.000Z</time>
      </trkpt>
      <trkpt lat="43.56076" lon="1.34598">
        <ele>168</ele>
        <time>2015-05-29T10:23:45.000Z</time>
      </trkpt>
      <trkpt lat="43.56077" lon="1.34575">
        <ele>168</ele>
        <time>2015-05-29T10:23:49.000Z</time>
      </trkpt>
      <trkpt lat="43.56078" lon="1.34548">
        <ele>167</ele>
        <time>2015-05-29T10:23:54.000Z</time>
      </trkpt>
      <trkpt lat="43.56081" lon="1.34523">
        <ele>167</ele>
        <time>2015-05-29T10:23:59.000Z</time>
      </trkpt>
      <trkpt lat="43.56085" lon="1.34494">
        <ele>168</ele>
        <time>2015-05-29T10:24:04.000Z</time>
      </trkpt>
      <trkpt lat="43.56086" lon="1.34488">
        <ele>168</ele>
        <time>2015-05-29T10:24:05.000Z</time>
      </trkpt>
      <trkpt lat="43.56086" lon="1.34478">
        <ele>168</ele>
        <time>2015-05-29T10:24:07.000Z</time>
      </trkpt>
      <trkpt lat="43.56087" lon="1.34461">
        <ele>168</ele>
        <time>2015-05-29T10:24:10.000Z</time>
      </trkpt>
      <trkpt lat="43.56088" lon="1.34446">
        <ele>168</ele>
        <time>2015-05-29T10:24:13.000Z</time>
      </trkpt>
      <trkpt lat="43.5609" lon="1.34434">
        <ele>167</ele>
        <time>2015-05-29T10:24:15.000Z</time>
      </trkpt>
      <trkpt lat="43.56092" lon="1.34427">
        <ele>167</ele>
        <time>2015-05-29T10:24:16.000Z</time>
      </trkpt>
      <trkpt lat="43.56093" lon="1.34411">
        <ele>166</ele>
        <time>2015-05-29T10:24:19.000Z</time>
      </trkpt>
      <trkpt lat="43.56092" lon="1.34404">
        <ele>166</ele>
        <time>2015-05-29T10:24:20.000Z</time>
      </trkpt>
      <trkpt lat="43.56092" lon="1.34394">
        <ele>166</ele>
        <time>2015-05-29T10:24:22.000Z</time>
      </trkpt>
      <trkpt lat="43.56091" lon="1.34388">
        <ele>166</ele>
        <time>2015-05-29T10:24:23.000Z</time>
      </trkpt>
      <trkpt lat="43.56093" lon="1.34362">
        <ele>166</ele>
        <time>2015-05-29T10:24:28.000Z</time>
      </trkpt>
      <trkpt lat="43.56098" lon="1.34341">
        <ele>165</ele>
        <time>2015-05-29T10:24:32.000Z</time>
      </trkpt>
      <trkpt lat="43.56102" lon="1.34328">
        <ele>164</ele>
        <time>2015-05-29T10:24:36.000Z</time>
      </trkpt>
      <trkpt lat="43.56105" lon="1.34323">
        <ele>164</ele>
        <time>2015-05-29T10:24:41.000Z</time>
      </trkpt>
      <trkpt lat="43.56109" lon="1.34317">
        <ele>164</ele>
        <time>2015-05-29T10:24:48.000Z</time>
      </trkpt>
      <trkpt lat="43.56111" lon="1.34311">
        <ele>164</ele>
        <time>2015-05-29T10:24:53.000Z</time>
      </trkpt>
      <trkpt lat="43.56115" lon="1.34303">
        <ele>165</ele>
        <time>2015-05-29T10:24:59.000Z</time>
      </trkpt>
      <trkpt lat="43.56117" lon="1.343">
        <ele>165</ele>
        <time>2015-05-29T10:25:02.000Z</time>
      </trkpt>
      <trkpt lat="43.56119" lon="1.34296">
        <ele>165</ele>
        <time>2015-05-29T10:25:06.000Z</time>
      </trkpt>
      <trkpt lat="43.56126" lon="1.34288">
        <ele>165</ele>
        <time>2015-05-29T10:25:12.000Z</time>
      </trkpt>
      <trkpt lat="43.56132" lon="1.3428">
        <ele>165</ele>
        <time>2015-05-29T10:25:19.000Z</time>
      </trkpt>
      <trkpt lat="43.5614" lon="1.34267">
        <ele>165</ele>
        <time>2015-05-29T10:25:28.000Z</time>
      </trkpt>
      <trkpt lat="43.56144" lon="1.34261">
        <ele>165</ele>
        <time>2015-05-29T10:25:33.000Z</time>
      </trkpt>
      <trkpt lat="43.56145" lon="1.3426">
        <ele>165</ele>
        <time>2015-05-29T10:25:34.000Z</time>
      </trkpt>
      <trkpt lat="43.56154" lon="1.34252">
        <ele>165</ele>
        <time>2015-05-29T10:25:39.000Z</time>
      </trkpt>
      <trkpt lat="43.56163" lon="1.34242">
        <ele>165</ele>
        <time>2015-05-29T10:25:44.000Z</time>
      </trkpt>
      <trkpt lat="43.56173" lon="1.34229">
        <ele>165</ele>
        <time>2015-05-29T10:25:50.000Z</time>
      </trkpt>
      <trkpt lat="43.56181" lon="1.34215">
        <ele>165</ele>
        <time>2015-05-29T10:25:55.000Z</time>
      </trkpt>
      <trkpt lat="43.5619" lon="1.34202">
        <ele>165</ele>
        <time>2015-05-29T10:26:00.000Z</time>
      </trkpt>
      <trkpt lat="43.56193" lon="1.34195">
        <ele>165</ele>
        <time>2015-05-29T10:26:02.000Z</time>
      </trkpt>
      <trkpt lat="43.562" lon="1.34183">
        <ele>165</ele>
        <time>2015-05-29T10:26:05.000Z</time>
      </trkpt>
      <trkpt lat="43.56209" lon="1.34162">
        <ele>165</ele>
        <time>2015-05-29T10:26:09.000Z</time>
      </trkpt>
      <trkpt lat="43.56217" lon="1.34141">
        <ele>165</ele>
        <time>2015-05-29T10:26:13.000Z</time>
      </trkpt>
      <trkpt lat="43.56219" lon="1.34136">
        <ele>165</ele>
        <time>2015-05-29T10:26:14.000Z</time>
      </trkpt>
      <trkpt lat="43.56227" lon="1.34119">
        <ele>165</ele>
        <time>2015-05-29T10:26:18.000Z</time>
      </trkpt>
      <trkpt lat="43.56237" lon="1.34095">
        <ele>165</ele>
        <time>2015-05-29T10:26:23.000Z</time>
      </trkpt>
      <trkpt lat="43.56245" lon="1.34071">
        <ele>164</ele>
        <time>2015-05-29T10:26:28.000Z</time>
      </trkpt>
      <trkpt lat="43.56254" lon="1.34047">
        <ele>165</ele>
        <time>2015-05-29T10:26:33.000Z</time>
      </trkpt>
      <trkpt lat="43.56259" lon="1.34029">
        <ele>165</ele>
        <time>2015-05-29T10:26:37.000Z</time>
      </trkpt>
      <trkpt lat="43.56267" lon="1.34013">
        <ele>164</ele>
        <time>2015-05-29T10:26:41.000Z</time>
      </trkpt>
      <trkpt lat="43.56276" lon="1.33994">
        <ele>163</ele>
        <time>2015-05-29T10:26:46.000Z</time>
      </trkpt>
      <trkpt lat="43.56281" lon="1.3397">
        <ele>163</ele>
        <time>2015-05-29T10:26:51.000Z</time>
      </trkpt>
      <trkpt lat="43.56283" lon="1.33967">
        <ele>163</ele>
        <time>2015-05-29T10:26:52.000Z</time>
      </trkpt>
      <trkpt lat="43.56296" lon="1.33952">
        <ele>163</ele>
        <time>2015-05-29T10:26:57.000Z</time>
      </trkpt>
      <trkpt lat="43.56298" lon="1.33953">
        <ele>163</ele>
        <time>2015-05-29T10:26:58.000Z</time>
      </trkpt>
      <trkpt lat="43.56309" lon="1.33959">
        <ele>163</ele>
        <time>2015-05-29T10:27:01.000Z</time>
      </trkpt>
      <trkpt lat="43.56319" lon="1.33953">
        <ele>163</ele>
        <time>2015-05-29T10:27:03.000Z</time>
      </trkpt>
      <trkpt lat="43.56322" lon="1.3395">
        <ele>163</ele>
        <time>2015-05-29T10:27:04.000Z</time>
      </trkpt>
      <trkpt lat="43.56326" lon="1.33932">
        <ele>163</ele>
        <time>2015-05-29T10:27:07.000Z</time>
      </trkpt>
      <trkpt lat="43.56328" lon="1.33921">
        <ele>162</ele>
        <time>2015-05-29T10:27:09.000Z</time>
      </trkpt>
      <trkpt lat="43.5633" lon="1.3391">
        <ele>162</ele>
        <time>2015-05-29T10:27:11.000Z</time>
      </trkpt>
      <trkpt lat="43.56334" lon="1.339">
        <ele>161</ele>
        <time>2015-05-29T10:27:13.000Z</time>
      </trkpt>
      <trkpt lat="43.56338" lon="1.33892">
        <ele>161</ele>
        <time>2015-05-29T10:27:15.000Z</time>
      </trkpt>
      <trkpt lat="43.56344" lon="1.33884">
        <ele>161</ele>
        <time>2015-05-29T10:27:17.000Z</time>
      </trkpt>
      <trkpt lat="43.56353" lon="1.33875">
        <ele>161</ele>
        <time>2015-05-29T10:27:20.000Z</time>
      </trkpt>
      <trkpt lat="43.56364" lon="1.33864">
        <ele>160</ele>
        <time>2015-05-29T10:27:24.000Z</time>
      </trkpt>
      <trkpt lat="43.56378" lon="1.33847">
        <ele>160</ele>
        <time>2015-05-29T10:27:29.000Z</time>
      </trkpt>
      <trkpt lat="43.56385" lon="1.33841">
        <ele>160</ele>
        <time>2015-05-29T10:27:31.000Z</time>
      </trkpt>
      <trkpt lat="43.56399" lon="1.33827">
        <ele>160</ele>
        <time>2015-05-29T10:27:36.000Z</time>
      </trkpt>
      <trkpt lat="43.56415" lon="1.33811">
        <ele>160</ele>
        <time>2015-05-29T10:27:42.000Z</time>
      </trkpt>
      <trkpt lat="43.56429" lon="1.33796">
        <ele>161</ele>
        <time>2015-05-29T10:27:47.000Z</time>
      </trkpt>
      <trkpt lat="43.56432" lon="1.33794">
        <ele>161</ele>
        <time>2015-05-29T10:27:48.000Z</time>
      </trkpt>
      <trkpt lat="43.56448" lon="1.33776">
        <ele>161</ele>
        <time>2015-05-29T10:27:53.000Z</time>
      </trkpt>
      <trkpt lat="43.56463" lon="1.33759">
        <ele>161</ele>
        <time>2015-05-29T10:27:58.000Z</time>
      </trkpt>
      <trkpt lat="43.56473" lon="1.33749">
        <ele>162</ele>
        <time>2015-05-29T10:28:01.000Z</time>
      </trkpt>
      <trkpt lat="43.56481" lon="1.33741">
        <ele>162</ele>
        <time>2015-05-29T10:28:04.000Z</time>
      </trkpt>
      <trkpt lat="43.56488" lon="1.33735">
        <ele>162</ele>
        <time>2015-05-29T10:28:08.000Z</time>
      </trkpt>
      <trkpt lat="43.56494" lon="1.33734">
        <ele>162</ele>
        <time>2015-05-29T10:28:13.000Z</time>
      </trkpt>
      <trkpt lat="43.56501" lon="1.3373">
        <ele>163</ele>
        <time>2015-05-29T10:28:20.000Z</time>
      </trkpt>
      <trkpt lat="43.56507" lon="1.33725">
        <ele>163</ele>
        <time>2015-05-29T10:28:25.000Z</time>
      </trkpt>
      <trkpt lat="43.56508" lon="1.33724">
        <ele>163</ele>
        <time>2015-05-29T10:28:26.000Z</time>
      </trkpt>
      <trkpt lat="43.56517" lon="1.33715">
        <ele>163</ele>
        <time>2015-05-29T10:28:34.000Z</time>
      </trkpt>
      <trkpt lat="43.56528" lon="1.33707">
        <ele>163</ele>
        <time>2015-05-29T10:28:42.000Z</time>
      </trkpt>
      <trkpt lat="43.56536" lon="1.337">
        <ele>164</ele>
        <time>2015-05-29T10:28:49.000Z</time>
      </trkpt>
      <trkpt lat="43.56543" lon="1.33693">
        <ele>164</ele>
        <time>2015-05-29T10:28:57.000Z</time>
      </trkpt>
      <trkpt lat="43.56552" lon="1.33686">
        <ele>164</ele>
        <time>2015-05-29T10:29:03.000Z</time>
      </trkpt>
      <trkpt lat="43.56559" lon="1.33676">
        <ele>164</ele>
        <time>2015-05-29T10:29:09.000Z</time>
      </trkpt>
      <trkpt lat="43.56569" lon="1.33665">
        <ele>164</ele>
        <time>2015-05-29T10:29:14.000Z</time>
      </trkpt>
      <trkpt lat="43.56583" lon="1.33652">
        <ele>164</ele>
        <time>2015-05-29T10:29:20.000Z</time>
      </trkpt>
      <trkpt lat="43.5659" lon="1.33644">
        <ele>164</ele>
        <time>2015-05-29T10:29:24.000Z</time>
      </trkpt>
      <trkpt lat="43.56606" lon="1.33632">
        <ele>164</ele>
        <time>2015-05-29T10:29:30.000Z</time>
      </trkpt>
      <trkpt lat="43.5661" lon="1.33629">
        <ele>164</ele>
        <time>2015-05-29T10:29:31.000Z</time>
      </trkpt>
      <trkpt lat="43.56624" lon="1.33618">
        <ele>163</ele>
        <time>2015-05-29T10:29:35.000Z</time>
      </trkpt>
      <trkpt lat="43.5664" lon="1.33604">
        <ele>163</ele>
        <time>2015-05-29T10:29:40.000Z</time>
      </trkpt>
      <trkpt lat="43.56655" lon="1.33592">
        <ele>163</ele>
        <time>2015-05-29T10:29:45.000Z</time>
      </trkpt>
      <trkpt lat="43.56672" lon="1.33581">
        <ele>162</ele>
        <time>2015-05-29T10:29:50.000Z</time>
      </trkpt>
      <trkpt lat="43.56684" lon="1.33566">
        <ele>162</ele>
        <time>2015-05-29T10:29:55.000Z</time>
      </trkpt>
      <trkpt lat="43.56699" lon="1.33555">
        <ele>162</ele>
        <time>2015-05-29T10:30:00.000Z</time>
      </trkpt>
      <trkpt lat="43.56716" lon="1.33544">
        <ele>162</ele>
        <time>2015-05-29T10:30:05.000Z</time>
      </trkpt>
      <trkpt lat="43.56734" lon="1.33533">
        <ele>162</ele>
        <time>2015-05-29T10:30:10.000Z</time>
      </trkpt>
      <trkpt lat="43.56737" lon="1.3353">
        <ele>162</ele>
        <time>2015-05-29T10:30:11.000Z</time>
      </trkpt>
      <trkpt lat="43.56747" lon="1.33521">
        <ele>162</ele>
        <time>2015-05-29T10:30:14.000Z</time>
      </trkpt>
      <trkpt lat="43.56765" lon="1.33507">
        <ele>163</ele>
        <time>2015-05-29T10:30:19.000Z</time>
      </trkpt>
      <trkpt lat="43.56777" lon="1.33499">
        <ele>162</ele>
        <time>2015-05-29T10:30:22.000Z</time>
      </trkpt>
      <trkpt lat="43.56788" lon="1.33492">
        <ele>162</ele>
        <time>2015-05-29T10:30:25.000Z</time>
      </trkpt>
      <trkpt lat="43.5679" lon="1.33489">
        <ele>162</ele>
        <time>2015-05-29T10:30:26.000Z</time>
      </trkpt>
      <trkpt lat="43.56799" lon="1.33483">
        <ele>162</ele>
        <time>2015-05-29T10:30:29.000Z</time>
      </trkpt>
      <trkpt lat="43.56812" lon="1.33474">
        <ele>162</ele>
        <time>2015-05-29T10:30:33.000Z</time>
      </trkpt>
      <trkpt lat="43.56829" lon="1.3346">
        <ele>162</ele>
        <time>2015-05-29T10:30:38.000Z</time>
      </trkpt>
      <trkpt lat="43.56832" lon="1.33456">
        <ele>162</ele>
        <time>2015-05-29T10:30:39.000Z</time>
      </trkpt>
      <trkpt lat="43.5685" lon="1.33441">
        <ele>161</ele>
        <time>2015-05-29T10:30:44.000Z</time>
      </trkpt>
      <trkpt lat="43.56853" lon="1.33439">
        <ele>161</ele>
        <time>2015-05-29T10:30:45.000Z</time>
      </trkpt>
      <trkpt lat="43.56873" lon="1.33427">
        <ele>161</ele>
        <time>2015-05-29T10:30:50.000Z</time>
      </trkpt>
      <trkpt lat="43.56876" lon="1.33424">
        <ele>161</ele>
        <time>2015-05-29T10:30:51.000Z</time>
      </trkpt>
      <trkpt lat="43.56888" lon="1.33415">
        <ele>161</ele>
        <time>2015-05-29T10:30:55.000Z</time>
      </trkpt>
      <trkpt lat="43.56901" lon="1.33404">
        <ele>161</ele>
        <time>2015-05-29T10:31:00.000Z</time>
      </trkpt>
      <trkpt lat="43.56918" lon="1.33399">
        <ele>161</ele>
        <time>2015-05-29T10:31:04.000Z</time>
      </trkpt>
      <trkpt lat="43.56936" lon="1.33394">
        <ele>162</ele>
        <time>2015-05-29T10:31:08.000Z</time>
      </trkpt>
      <trkpt lat="43.56941" lon="1.33396">
        <ele>162</ele>
        <time>2015-05-29T10:31:09.000Z</time>
      </trkpt>
      <trkpt lat="43.5695" lon="1.3341">
        <ele>162</ele>
        <time>2015-05-29T10:31:12.000Z</time>
      </trkpt>
      <trkpt lat="43.56953" lon="1.33415">
        <ele>162</ele>
        <time>2015-05-29T10:31:13.000Z</time>
      </trkpt>
      <trkpt lat="43.56961" lon="1.33437">
        <ele>162</ele>
        <time>2015-05-29T10:31:17.000Z</time>
      </trkpt>
      <trkpt lat="43.56963" lon="1.33442">
        <ele>162</ele>
        <time>2015-05-29T10:31:18.000Z</time>
      </trkpt>
      <trkpt lat="43.56969" lon="1.33452">
        <ele>163</ele>
        <time>2015-05-29T10:31:20.000Z</time>
      </trkpt>
      <trkpt lat="43.56976" lon="1.33465">
        <ele>163</ele>
        <time>2015-05-29T10:31:23.000Z</time>
      </trkpt>
      <trkpt lat="43.5698" lon="1.33475">
        <ele>163</ele>
        <time>2015-05-29T10:31:25.000Z</time>
      </trkpt>
      <trkpt lat="43.56982" lon="1.33479">
        <ele>163</ele>
        <time>2015-05-29T10:31:26.000Z</time>
      </trkpt>
      <trkpt lat="43.56986" lon="1.3349">
        <ele>163</ele>
        <time>2015-05-29T10:31:28.000Z</time>
      </trkpt>
      <trkpt lat="43.56991" lon="1.33502">
        <ele>163</ele>
        <time>2015-05-29T10:31:33.000Z</time>
      </trkpt>
      <trkpt lat="43.56993" lon="1.33509">
        <ele>163</ele>
        <time>2015-05-29T10:31:40.000Z</time>
      </trkpt>
      <trkpt lat="43.56997" lon="1.33518">
        <ele>163</ele>
        <time>2015-05-29T10:31:47.000Z</time>
      </trkpt>
      <trkpt lat="43.56999" lon="1.3352">
        <ele>163</ele>
        <time>2015-05-29T10:31:49.000Z</time>
      </trkpt>
      <trkpt lat="43.57003" lon="1.33526">
        <ele>164</ele>
        <time>2015-05-29T10:31:54.000Z</time>
      </trkpt>
      <trkpt lat="43.57007" lon="1.33533">
        <ele>164</ele>
        <time>2015-05-29T10:32:00.000Z</time>
      </trkpt>
      <trkpt lat="43.57008" lon="1.33535">
        <ele>164</ele>
        <time>2015-05-29T10:32:01.000Z</time>
      </trkpt>
      <trkpt lat="43.5701" lon="1.3354">
        <ele>164</ele>
        <time>2015-05-29T10:32:04.000Z</time>
      </trkpt>
      <trkpt lat="43.5701" lon="1.3354">
        <ele>164</ele>
        <time>2015-05-29T10:32:09.000Z</time>
      </trkpt>
      <trkpt lat="43.57011" lon="1.3354">
        <ele>164</ele>
        <time>2015-05-29T10:32:13.000Z</time>
      </trkpt>
      <trkpt lat="43.57012" lon="1.33539">
        <ele>164</ele>
        <time>2015-05-29T10:32:14.000Z</time>
      </trkpt>
      <trkpt lat="43.57013" lon="1.33539">
        <ele>164</ele>
        <time>2015-05-29T10:32:15.000Z</time>
      </trkpt>
      <trkpt lat="43.57016" lon="1.33536">
        <ele>164</ele>
        <time>2015-05-29T10:32:18.000Z</time>
      </trkpt>
      <trkpt lat="43.57017" lon="1.33535">
        <ele>164</ele>
        <time>2015-05-29T10:32:19.000Z</time>
      </trkpt>
      <trkpt lat="43.5702" lon="1.33527">
        <ele>164</ele>
        <time>2015-05-29T10:32:24.000Z</time>
      </trkpt>
      <trkpt lat="43.57021" lon="1.33526">
        <ele>164</ele>
        <time>2015-05-29T10:32:25.000Z</time>
      </trkpt>
      <trkpt lat="43.57018" lon="1.33519">
        <ele>164</ele>
        <time>2015-05-29T10:32:32.000Z</time>
      </trkpt>
      <trkpt lat="43.57014" lon="1.3351">
        <ele>163</ele>
        <time>2015-05-29T10:32:38.000Z</time>
      </trkpt>
      <trkpt lat="43.57003" lon="1.33492">
        <ele>163</ele>
        <time>2015-05-29T10:32:44.000Z</time>
      </trkpt>
      <trkpt lat="43.56996" lon="1.33472">
        <ele>163</ele>
        <time>2015-05-29T10:32:50.000Z</time>
      </trkpt>
      <trkpt lat="43.5699" lon="1.33452">
        <ele>163</ele>
        <time>2015-05-29T10:32:55.000Z</time>
      </trkpt>
      <trkpt lat="43.56988" lon="1.33447">
        <ele>163</ele>
        <time>2015-05-29T10:32:56.000Z</time>
      </trkpt>
      <trkpt lat="43.5698" lon="1.33428">
        <ele>163</ele>
        <time>2015-05-29T10:33:00.000Z</time>
      </trkpt>
      <trkpt lat="43.56974" lon="1.33404">
        <ele>162</ele>
        <time>2015-05-29T10:33:06.000Z</time>
      </trkpt>
      <trkpt lat="43.56985" lon="1.33391">
        <ele>162</ele>
        <time>2015-05-29T10:33:10.000Z</time>
      </trkpt>
      <trkpt lat="43.56998" lon="1.3338">
        <ele>163</ele>
        <time>2015-05-29T10:33:14.000Z</time>
      </trkpt>
      <trkpt lat="43.57013" lon="1.33371">
        <ele>162</ele>
        <time>2015-05-29T10:33:18.000Z</time>
      </trkpt>
      <trkpt lat="43.57031" lon="1.3336">
        <ele>162</ele>
        <time>2015-05-29T10:33:23.000Z</time>
      </trkpt>
      <trkpt lat="43.57035" lon="1.33357">
        <ele>162</ele>
        <time>2015-05-29T10:33:24.000Z</time>
      </trkpt>
      <trkpt lat="43.57052" lon="1.33345">
        <ele>162</ele>
        <time>2015-05-29T10:33:29.000Z</time>
      </trkpt>
      <trkpt lat="43.57057" lon="1.33342">
        <ele>162</ele>
        <time>2015-05-29T10:33:30.000Z</time>
      </trkpt>
      <trkpt lat="43.57075" lon="1.33329">
        <ele>162</ele>
        <time>2015-05-29T10:33:35.000Z</time>
      </trkpt>
      <trkpt lat="43.57086" lon="1.33318">
        <ele>162</ele>
        <time>2015-05-29T10:33:39.000Z</time>
      </trkpt>
      <trkpt lat="43.57102" lon="1.33305">
        <ele>162</ele>
        <time>2015-05-29T10:33:44.000Z</time>
      </trkpt>
      <trkpt lat="43.57116" lon="1.33294">
        <ele>162</ele>
        <time>2015-05-29T10:33:48.000Z</time>
      </trkpt>
      <trkpt lat="43.57133" lon="1.33283">
        <ele>162</ele>
        <time>2015-05-29T10:33:53.000Z</time>
      </trkpt>
      <trkpt lat="43.57137" lon="1.33281">
        <ele>162</ele>
        <time>2015-05-29T10:33:54.000Z</time>
      </trkpt>
      <trkpt lat="43.57147" lon="1.33272">
        <ele>161</ele>
        <time>2015-05-29T10:33:58.000Z</time>
      </trkpt>
      <trkpt lat="43.57149" lon="1.3326">
        <ele>161</ele>
        <time>2015-05-29T10:34:01.000Z</time>
      </trkpt>
      <trkpt lat="43.57152" lon="1.33252">
        <ele>161</ele>
        <time>2015-05-29T10:34:03.000Z</time>
      </trkpt>
      <trkpt lat="43.57161" lon="1.33239">
        <ele>160</ele>
        <time>2015-05-29T10:34:06.000Z</time>
      </trkpt>
      <trkpt lat="43.57171" lon="1.33219">
        <ele>160</ele>
        <time>2015-05-29T10:34:10.000Z</time>
      </trkpt>
      <trkpt lat="43.5718" lon="1.33208">
        <ele>159</ele>
        <time>2015-05-29T10:34:13.000Z</time>
      </trkpt>
      <trkpt lat="43.57184" lon="1.33205">
        <ele>159</ele>
        <time>2015-05-29T10:34:14.000Z</time>
      </trkpt>
      <trkpt lat="43.57197" lon="1.33201">
        <ele>159</ele>
        <time>2015-05-29T10:34:18.000Z</time>
      </trkpt>
      <trkpt lat="43.57208" lon="1.33183">
        <ele>159</ele>
        <time>2015-05-29T10:34:22.000Z</time>
      </trkpt>
      <trkpt lat="43.57212" lon="1.33173">
        <ele>159</ele>
        <time>2015-05-29T10:34:24.000Z</time>
      </trkpt>
      <trkpt lat="43.57218" lon="1.33166">
        <ele>160</ele>
        <time>2015-05-29T10:34:26.000Z</time>
      </trkpt>
      <trkpt lat="43.57229" lon="1.33155">
        <ele>159</ele>
        <time>2015-05-29T10:34:29.000Z</time>
      </trkpt>
      <trkpt lat="43.57233" lon="1.33152">
        <ele>159</ele>
        <time>2015-05-29T10:34:30.000Z</time>
      </trkpt>
      <trkpt lat="43.57246" lon="1.33138">
        <ele>159</ele>
        <time>2015-05-29T10:34:34.000Z</time>
      </trkpt>
      <trkpt lat="43.57249" lon="1.33136">
        <ele>159</ele>
        <time>2015-05-29T10:34:35.000Z</time>
      </trkpt>
      <trkpt lat="43.57261" lon="1.3312">
        <ele>159</ele>
        <time>2015-05-29T10:34:40.000Z</time>
      </trkpt>
      <trkpt lat="43.57276" lon="1.33103">
        <ele>159</ele>
        <time>2015-05-29T10:34:45.000Z</time>
      </trkpt>
      <trkpt lat="43.57281" lon="1.33096">
        <ele>159</ele>
        <time>2015-05-29T10:34:47.000Z</time>
      </trkpt>
      <trkpt lat="43.57295" lon="1.3308">
        <ele>158</ele>
        <time>2015-05-29T10:34:52.000Z</time>
      </trkpt>
      <trkpt lat="43.57305" lon="1.33067">
        <ele>158</ele>
        <time>2015-05-29T10:34:55.000Z</time>
      </trkpt>
      <trkpt lat="43.57313" lon="1.33061">
        <ele>158</ele>
        <time>2015-05-29T10:34:57.000Z</time>
      </trkpt>
      <trkpt lat="43.57318" lon="1.33057">
        <ele>158</ele>
        <time>2015-05-29T10:35:01.000Z</time>
      </trkpt>
      <trkpt lat="43.57326" lon="1.33051">
        <ele>158</ele>
        <time>2015-05-29T10:35:08.000Z</time>
      </trkpt>
      <trkpt lat="43.57329" lon="1.33049">
        <ele>158</ele>
        <time>2015-05-29T10:35:11.000Z</time>
      </trkpt>
      <trkpt lat="43.57333" lon="1.33045">
        <ele>158</ele>
        <time>2015-05-29T10:35:15.000Z</time>
      </trkpt>
      <trkpt lat="43.57338" lon="1.33038">
        <ele>157</ele>
        <time>2015-05-29T10:35:21.000Z</time>
      </trkpt>
      <trkpt lat="43.57342" lon="1.33032">
        <ele>157</ele>
        <time>2015-05-29T10:35:26.000Z</time>
      </trkpt>
      <trkpt lat="43.57349" lon="1.33024">
        <ele>157</ele>
        <time>2015-05-29T10:35:33.000Z</time>
      </trkpt>
      <trkpt lat="43.57357" lon="1.33014">
        <ele>156</ele>
        <time>2015-05-29T10:35:41.000Z</time>
      </trkpt>
      <trkpt lat="43.57358" lon="1.33013">
        <ele>156</ele>
        <time>2015-05-29T10:35:42.000Z</time>
      </trkpt>
      <trkpt lat="43.57363" lon="1.33008">
        <ele>156</ele>
        <time>2015-05-29T10:35:47.000Z</time>
      </trkpt>
      <trkpt lat="43.57364" lon="1.33006">
        <ele>156</ele>
        <time>2015-05-29T10:35:48.000Z</time>
      </trkpt>
      <trkpt lat="43.57367" lon="1.32999">
        <ele>157</ele>
        <time>2015-05-29T10:35:53.000Z</time>
      </trkpt>
      <trkpt lat="43.57377" lon="1.32989">
        <ele>157</ele>
        <time>2015-05-29T10:35:59.000Z</time>
      </trkpt>
      <trkpt lat="43.57377" lon="1.32992">
        <ele>157</ele>
        <time>2015-05-29T10:36:01.000Z</time>
      </trkpt>
      <trkpt lat="43.57379" lon="1.32998">
        <ele>157</ele>
        <time>2015-05-29T10:36:03.000Z</time>
      </trkpt>
      <trkpt lat="43.57382" lon="1.33021">
        <ele>156</ele>
        <time>2015-05-29T10:36:09.000Z</time>
      </trkpt>
      <trkpt lat="43.5739" lon="1.33048">
        <ele>156</ele>
        <time>2015-05-29T10:36:16.000Z</time>
      </trkpt>
      <trkpt lat="43.57398" lon="1.3307">
        <ele>156</ele>
        <time>2015-05-29T10:36:21.000Z</time>
      </trkpt>
      <trkpt lat="43.57408" lon="1.3309">
        <ele>156</ele>
        <time>2015-05-29T10:36:25.000Z</time>
      </trkpt>
      <trkpt lat="43.57412" lon="1.33095">
        <ele>156</ele>
        <time>2015-05-29T10:36:26.000Z</time>
      </trkpt>
      <trkpt lat="43.57417" lon="1.33105">
        <ele>155</ele>
        <time>2015-05-29T10:36:28.000Z</time>
      </trkpt>
      <trkpt lat="43.57424" lon="1.33122">
        <ele>155</ele>
        <time>2015-05-29T10:36:31.000Z</time>
      </trkpt>
      <trkpt lat="43.57426" lon="1.33128">
        <ele>155</ele>
        <time>2015-05-29T10:36:32.000Z</time>
      </trkpt>
      <trkpt lat="43.57435" lon="1.33156">
        <ele>156</ele>
        <time>2015-05-29T10:36:36.000Z</time>
      </trkpt>
      <trkpt lat="43.57438" lon="1.33162">
        <ele>156</ele>
        <time>2015-05-29T10:36:37.000Z</time>
      </trkpt>
      <trkpt lat="43.57442" lon="1.33169">
        <ele>156</ele>
        <time>2015-05-29T10:36:38.000Z</time>
      </trkpt>
      <trkpt lat="43.57452" lon="1.33184">
        <ele>155</ele>
        <time>2015-05-29T10:36:41.000Z</time>
      </trkpt>
      <trkpt lat="43.57455" lon="1.33189">
        <ele>155</ele>
        <time>2015-05-29T10:36:42.000Z</time>
      </trkpt>
      <trkpt lat="43.57464" lon="1.33201">
        <ele>155</ele>
        <time>2015-05-29T10:36:45.000Z</time>
      </trkpt>
      <trkpt lat="43.57469" lon="1.3321">
        <ele>155</ele>
        <time>2015-05-29T10:36:47.000Z</time>
      </trkpt>
      <trkpt lat="43.57474" lon="1.33218">
        <ele>155</ele>
        <time>2015-05-29T10:36:49.000Z</time>
      </trkpt>
      <trkpt lat="43.57477" lon="1.33222">
        <ele>155</ele>
        <time>2015-05-29T10:36:50.000Z</time>
      </trkpt>
      <trkpt lat="43.57484" lon="1.33241">
        <ele>155</ele>
        <time>2015-05-29T10:36:54.000Z</time>
      </trkpt>
      <trkpt lat="43.57493" lon="1.33265">
        <ele>155</ele>
        <time>2015-05-29T10:36:59.000Z</time>
      </trkpt>
      <trkpt lat="43.57498" lon="1.33284">
        <ele>155</ele>
        <time>2015-05-29T10:37:03.000Z</time>
      </trkpt>
      <trkpt lat="43.57505" lon="1.333">
        <ele>155</ele>
        <time>2015-05-29T10:37:07.000Z</time>
      </trkpt>
      <trkpt lat="43.57509" lon="1.33324">
        <ele>154</ele>
        <time>2015-05-29T10:37:12.000Z</time>
      </trkpt>
      <trkpt lat="43.57514" lon="1.33348">
        <ele>155</ele>
        <time>2015-05-29T10:37:17.000Z</time>
      </trkpt>
      <trkpt lat="43.57526" lon="1.33369">
        <ele>155</ele>
        <time>2015-05-29T10:37:22.000Z</time>
      </trkpt>
      <trkpt lat="43.57537" lon="1.33388">
        <ele>155</ele>
        <time>2015-05-29T10:37:27.000Z</time>
      </trkpt>
      <trkpt lat="43.57546" lon="1.33405">
        <ele>155</ele>
        <time>2015-05-29T10:37:31.000Z</time>
      </trkpt>
      <trkpt lat="43.57557" lon="1.33424">
        <ele>156</ele>
        <time>2015-05-29T10:37:36.000Z</time>
      </trkpt>
      <trkpt lat="43.57566" lon="1.33443">
        <ele>156</ele>
        <time>2015-05-29T10:37:40.000Z</time>
      </trkpt>
      <trkpt lat="43.57575" lon="1.33461">
        <ele>155</ele>
        <time>2015-05-29T10:37:44.000Z</time>
      </trkpt>
      <trkpt lat="43.57586" lon="1.33486">
        <ele>154</ele>
        <time>2015-05-29T10:37:49.000Z</time>
      </trkpt>
      <trkpt lat="43.57596" lon="1.33509">
        <ele>154</ele>
        <time>2015-05-29T10:37:54.000Z</time>
      </trkpt>
      <trkpt lat="43.57598" lon="1.33513">
        <ele>154</ele>
        <time>2015-05-29T10:37:55.000Z</time>
      </trkpt>
      <trkpt lat="43.57609" lon="1.33538">
        <ele>154</ele>
        <time>2015-05-29T10:38:01.000Z</time>
      </trkpt>
      <trkpt lat="43.57611" lon="1.33543">
        <ele>155</ele>
        <time>2015-05-29T10:38:02.000Z</time>
      </trkpt>
      <trkpt lat="43.5762" lon="1.33568">
        <ele>155</ele>
        <time>2015-05-29T10:38:07.000Z</time>
      </trkpt>
      <trkpt lat="43.57624" lon="1.33587">
        <ele>155</ele>
        <time>2015-05-29T10:38:11.000Z</time>
      </trkpt>
      <trkpt lat="43.57624" lon="1.33615">
        <ele>156</ele>
        <time>2015-05-29T10:38:16.000Z</time>
      </trkpt>
      <trkpt lat="43.57624" lon="1.3362">
        <ele>156</ele>
        <time>2015-05-29T10:38:17.000Z</time>
      </trkpt>
      <trkpt lat="43.57626" lon="1.33646">
        <ele>156</ele>
        <time>2015-05-29T10:38:21.000Z</time>
      </trkpt>
      <trkpt lat="43.57623" lon="1.33649">
        <ele>156</ele>
        <time>2015-05-29T10:38:24.000Z</time>
      </trkpt>
      <trkpt lat="43.5762" lon="1.33659">
        <ele>156</ele>
        <time>2015-05-29T10:38:32.000Z</time>
      </trkpt>
      <trkpt lat="43.5762" lon="1.3367">
        <ele>156</ele>
        <time>2015-05-29T10:38:39.000Z</time>
      </trkpt>
      <trkpt lat="43.57621" lon="1.33672">
        <ele>156</ele>
        <time>2015-05-29T10:38:41.000Z</time>
      </trkpt>
      <trkpt lat="43.57622" lon="1.33677">
        <ele>156</ele>
        <time>2015-05-29T10:38:45.000Z</time>
      </trkpt>
      <trkpt lat="43.57622" lon="1.33678">
        <ele>156</ele>
        <time>2015-05-29T10:38:46.000Z</time>
      </trkpt>
      <trkpt lat="43.57621" lon="1.33681">
        <ele>156</ele>
        <time>2015-05-29T10:38:48.000Z</time>
      </trkpt>
      <trkpt lat="43.57622" lon="1.33687">
        <ele>156</ele>
        <time>2015-05-29T10:38:52.000Z</time>
      </trkpt>
      <trkpt lat="43.57623" lon="1.33695">
        <ele>156</ele>
        <time>2015-05-29T10:38:56.000Z</time>
      </trkpt>
      <trkpt lat="43.57623" lon="1.33698">
        <ele>156</ele>
        <time>2015-05-29T10:38:58.000Z</time>
      </trkpt>
      <trkpt lat="43.57622" lon="1.33708">
        <ele>156</ele>
        <time>2015-05-29T10:39:03.000Z</time>
      </trkpt>
      <trkpt lat="43.57622" lon="1.33711">
        <ele>156</ele>
        <time>2015-05-29T10:39:04.000Z</time>
      </trkpt>
      <trkpt lat="43.57622" lon="1.33717">
        <ele>156</ele>
        <time>2015-05-29T10:39:08.000Z</time>
      </trkpt>
      <trkpt lat="43.57622" lon="1.3372">
        <ele>156</ele>
        <time>2015-05-29T10:39:10.000Z</time>
      </trkpt>
      <trkpt lat="43.57623" lon="1.33734">
        <ele>156</ele>
        <time>2015-05-29T10:39:18.000Z</time>
      </trkpt>
      <trkpt lat="43.57625" lon="1.33748">
        <ele>156</ele>
        <time>2015-05-29T10:39:24.000Z</time>
      </trkpt>
      <trkpt lat="43.57626" lon="1.33765">
        <ele>156</ele>
        <time>2015-05-29T10:39:29.000Z</time>
      </trkpt>
      <trkpt lat="43.57627" lon="1.33779">
        <ele>156</ele>
        <time>2015-05-29T10:39:34.000Z</time>
      </trkpt>
      <trkpt lat="43.57627" lon="1.33793">
        <ele>156</ele>
        <time>2015-05-29T10:39:38.000Z</time>
      </trkpt>
      <trkpt lat="43.57624" lon="1.33796">
        <ele>156</ele>
        <time>2015-05-29T10:39:39.000Z</time>
      </trkpt>
      <trkpt lat="43.5762" lon="1.33811">
        <ele>156</ele>
        <time>2015-05-29T10:39:43.000Z</time>
      </trkpt>
      <trkpt lat="43.57619" lon="1.33815">
        <ele>156</ele>
        <time>2015-05-29T10:39:44.000Z</time>
      </trkpt>
      <trkpt lat="43.57616" lon="1.33829">
        <ele>156</ele>
        <time>2015-05-29T10:39:47.000Z</time>
      </trkpt>
      <trkpt lat="43.57615" lon="1.3384">
        <ele>156</ele>
        <time>2015-05-29T10:39:49.000Z</time>
      </trkpt>
      <trkpt lat="43.57616" lon="1.33868">
        <ele>156</ele>
        <time>2015-05-29T10:39:54.000Z</time>
      </trkpt>
      <trkpt lat="43.57613" lon="1.33893">
        <ele>156</ele>
        <time>2015-05-29T10:39:59.000Z</time>
      </trkpt>
      <trkpt lat="43.57601" lon="1.33912">
        <ele>157</ele>
        <time>2015-05-29T10:40:04.000Z</time>
      </trkpt>
      <trkpt lat="43.57586" lon="1.33925">
        <ele>157</ele>
        <time>2015-05-29T10:40:09.000Z</time>
      </trkpt>
      <trkpt lat="43.57573" lon="1.33944">
        <ele>158</ele>
        <time>2015-05-29T10:40:14.000Z</time>
      </trkpt>
      <trkpt lat="43.57577" lon="1.3397">
        <ele>157</ele>
        <time>2015-05-29T10:40:18.000Z</time>
      </trkpt>
      <trkpt lat="43.57589" lon="1.33984">
        <ele>156</ele>
        <time>2015-05-29T10:40:22.000Z</time>
      </trkpt>
      <trkpt lat="43.57594" lon="1.33989">
        <ele>156</ele>
        <time>2015-05-29T10:40:24.000Z</time>
      </trkpt>
      <trkpt lat="43.57605" lon="1.33997">
        <ele>156</ele>
        <time>2015-05-29T10:40:27.000Z</time>
      </trkpt>
      <trkpt lat="43.57621" lon="1.34009">
        <ele>156</ele>
        <time>2015-05-29T10:40:32.000Z</time>
      </trkpt>
      <trkpt lat="43.57625" lon="1.34013">
        <ele>156</ele>
        <time>2015-05-29T10:40:33.000Z</time>
      </trkpt>
      <trkpt lat="43.57633" lon="1.34029">
        <ele>156</ele>
        <time>2015-05-29T10:40:37.000Z</time>
      </trkpt>
      <trkpt lat="43.57631" lon="1.34034">
        <ele>156</ele>
        <time>2015-05-29T10:40:38.000Z</time>
      </trkpt>
      <trkpt lat="43.57628" lon="1.34042">
        <ele>156</ele>
        <time>2015-05-29T10:40:40.000Z</time>
      </trkpt>
      <trkpt lat="43.57618" lon="1.34058">
        <ele>156</ele>
        <time>2015-05-29T10:40:44.000Z</time>
      </trkpt>
      <trkpt lat="43.57612" lon="1.34081">
        <ele>157</ele>
        <time>2015-05-29T10:40:49.000Z</time>
      </trkpt>
      <trkpt lat="43.57612" lon="1.34106">
        <ele>157</ele>
        <time>2015-05-29T10:40:54.000Z</time>
      </trkpt>
      <trkpt lat="43.57612" lon="1.3411">
        <ele>157</ele>
        <time>2015-05-29T10:40:55.000Z</time>
      </trkpt>
      <trkpt lat="43.5761" lon="1.34117">
        <ele>158</ele>
        <time>2015-05-29T10:40:57.000Z</time>
      </trkpt>
      <trkpt lat="43.5761" lon="1.34127">
        <ele>158</ele>
        <time>2015-05-29T10:40:59.000Z</time>
      </trkpt>
      <trkpt lat="43.57609" lon="1.34139">
        <ele>158</ele>
        <time>2015-05-29T10:41:01.000Z</time>
      </trkpt>
      <trkpt lat="43.57617" lon="1.34163">
        <ele>158</ele>
        <time>2015-05-29T10:41:06.000Z</time>
      </trkpt>
      <trkpt lat="43.5763" lon="1.34183">
        <ele>158</ele>
        <time>2015-05-29T10:41:11.000Z</time>
      </trkpt>
      <trkpt lat="43.5764" lon="1.34198">
        <ele>158</ele>
        <time>2015-05-29T10:41:15.000Z</time>
      </trkpt>
      <trkpt lat="43.57654" lon="1.34217">
        <ele>158</ele>
        <time>2015-05-29T10:41:20.000Z</time>
      </trkpt>
      <trkpt lat="43.57657" lon="1.34221">
        <ele>158</ele>
        <time>2015-05-29T10:41:21.000Z</time>
      </trkpt>
      <trkpt lat="43.57671" lon="1.3424">
        <ele>157</ele>
        <time>2015-05-29T10:41:26.000Z</time>
      </trkpt>
      <trkpt lat="43.57674" lon="1.34244">
        <ele>157</ele>
        <time>2015-05-29T10:41:27.000Z</time>
      </trkpt>
      <trkpt lat="43.57687" lon="1.34256">
        <ele>157</ele>
        <time>2015-05-29T10:41:31.000Z</time>
      </trkpt>
      <trkpt lat="43.57701" lon="1.34262">
        <ele>157</ele>
        <time>2015-05-29T10:41:35.000Z</time>
      </trkpt>
      <trkpt lat="43.57719" lon="1.34268">
        <ele>156</ele>
        <time>2015-05-29T10:41:40.000Z</time>
      </trkpt>
      <trkpt lat="43.57738" lon="1.34278">
        <ele>156</ele>
        <time>2015-05-29T10:41:45.000Z</time>
      </trkpt>
      <trkpt lat="43.57741" lon="1.3428">
        <ele>156</ele>
        <time>2015-05-29T10:41:46.000Z</time>
      </trkpt>
      <trkpt lat="43.57744" lon="1.3428">
        <ele>156</ele>
        <time>2015-05-29T10:41:47.000Z</time>
      </trkpt>
      <trkpt lat="43.57745" lon="1.34279">
        <ele>156</ele>
        <time>2015-05-29T10:41:49.000Z</time>
      </trkpt>
      <trkpt lat="43.57746" lon="1.3428">
        <ele>156</ele>
        <time>2015-05-29T10:41:51.000Z</time>
      </trkpt>
      <trkpt lat="43.57751" lon="1.34281">
        <ele>155</ele>
        <time>2015-05-29T10:41:56.000Z</time>
      </trkpt>
      <trkpt lat="43.57752" lon="1.3428">
        <ele>155</ele>
        <time>2015-05-29T10:41:59.000Z</time>
      </trkpt>
      <trkpt lat="43.57755" lon="1.3428">
        <ele>155</ele>
        <time>2015-05-29T10:42:02.000Z</time>
      </trkpt>
      <trkpt lat="43.57755" lon="1.34283">
        <ele>155</ele>
        <time>2015-05-29T10:42:07.000Z</time>
      </trkpt>
      <trkpt lat="43.5776" lon="1.34287">
        <ele>155</ele>
        <time>2015-05-29T10:42:11.000Z</time>
      </trkpt>
      <trkpt lat="43.57763" lon="1.34291">
        <ele>155</ele>
        <time>2015-05-29T10:42:14.000Z</time>
      </trkpt>
      <trkpt lat="43.57765" lon="1.34292">
        <ele>155</ele>
        <time>2015-05-29T10:42:16.000Z</time>
      </trkpt>
      <trkpt lat="43.5777" lon="1.34294">
        <ele>155</ele>
        <time>2015-05-29T10:42:21.000Z</time>
      </trkpt>
      <trkpt lat="43.57771" lon="1.34295">
        <ele>155</ele>
        <time>2015-05-29T10:42:22.000Z</time>
      </trkpt>
      <trkpt lat="43.57772" lon="1.34297">
        <ele>155</ele>
        <time>2015-05-29T10:42:24.000Z</time>
      </trkpt>
      <trkpt lat="43.57775" lon="1.34298">
        <ele>155</ele>
        <time>2015-05-29T10:42:26.000Z</time>
      </trkpt>
      <trkpt lat="43.57781" lon="1.34299">
        <ele>155</ele>
        <time>2015-05-29T10:42:30.000Z</time>
      </trkpt>
      <trkpt lat="43.57787" lon="1.34301">
        <ele>155</ele>
        <time>2015-05-29T10:42:35.000Z</time>
      </trkpt>
      <trkpt lat="43.57791" lon="1.34305">
        <ele>155</ele>
        <time>2015-05-29T10:42:40.000Z</time>
      </trkpt>
      <trkpt lat="43.57791" lon="1.34307">
        <ele>155</ele>
        <time>2015-05-29T10:42:41.000Z</time>
      </trkpt>
      <trkpt lat="43.57789" lon="1.34312">
        <ele>155</ele>
        <time>2015-05-29T10:42:46.000Z</time>
      </trkpt>
      <trkpt lat="43.57786" lon="1.34318">
        <ele>155</ele>
        <time>2015-05-29T10:42:51.000Z</time>
      </trkpt>
      <trkpt lat="43.57784" lon="1.34321">
        <ele>155</ele>
        <time>2015-05-29T10:42:54.000Z</time>
      </trkpt>
      <trkpt lat="43.57779" lon="1.3433">
        <ele>155</ele>
        <time>2015-05-29T10:43:00.000Z</time>
      </trkpt>
      <trkpt lat="43.57776" lon="1.34334">
        <ele>156</ele>
        <time>2015-05-29T10:43:02.000Z</time>
      </trkpt>
      <trkpt lat="43.57763" lon="1.34342">
        <ele>156</ele>
        <time>2015-05-29T10:43:06.000Z</time>
      </trkpt>
      <trkpt lat="43.57748" lon="1.34347">
        <ele>156</ele>
        <time>2015-05-29T10:43:11.000Z</time>
      </trkpt>
      <trkpt lat="43.57735" lon="1.34352">
        <ele>156</ele>
        <time>2015-05-29T10:43:15.000Z</time>
      </trkpt>
      <trkpt lat="43.57733" lon="1.34355">
        <ele>156</ele>
        <time>2015-05-29T10:43:16.000Z</time>
      </trkpt>
      <trkpt lat="43.57739" lon="1.34361">
        <ele>156</ele>
        <time>2015-05-29T10:43:19.000Z</time>
      </trkpt>
      <trkpt lat="43.57751" lon="1.34359">
        <ele>156</ele>
        <time>2015-05-29T10:43:22.000Z</time>
      </trkpt>
      <trkpt lat="43.57756" lon="1.34359">
        <ele>156</ele>
        <time>2015-05-29T10:43:23.000Z</time>
      </trkpt>
      <trkpt lat="43.57774" lon="1.34357">
        <ele>156</ele>
        <time>2015-05-29T10:43:28.000Z</time>
      </trkpt>
      <trkpt lat="43.57789" lon="1.34364">
        <ele>156</ele>
        <time>2015-05-29T10:43:32.000Z</time>
      </trkpt>
      <trkpt lat="43.57802" lon="1.34384">
        <ele>156</ele>
        <time>2015-05-29T10:43:37.000Z</time>
      </trkpt>
      <trkpt lat="43.57804" lon="1.34409">
        <ele>156</ele>
        <time>2015-05-29T10:43:42.000Z</time>
      </trkpt>
      <trkpt lat="43.57797" lon="1.3443">
        <ele>156</ele>
        <time>2015-05-29T10:43:47.000Z</time>
      </trkpt>
      <trkpt lat="43.57791" lon="1.34454">
        <ele>156</ele>
        <time>2015-05-29T10:43:52.000Z</time>
      </trkpt>
      <trkpt lat="43.57787" lon="1.34479">
        <ele>156</ele>
        <time>2015-05-29T10:43:58.000Z</time>
      </trkpt>
      <trkpt lat="43.57786" lon="1.34483">
        <ele>156</ele>
        <time>2015-05-29T10:43:59.000Z</time>
      </trkpt>
      <trkpt lat="43.57783" lon="1.3451">
        <ele>156</ele>
        <time>2015-05-29T10:44:04.000Z</time>
      </trkpt>
      <trkpt lat="43.57779" lon="1.34535">
        <ele>156</ele>
        <time>2015-05-29T10:44:09.000Z</time>
      </trkpt>
      <trkpt lat="43.57778" lon="1.34539">
        <ele>156</ele>
        <time>2015-05-29T10:44:10.000Z</time>
      </trkpt>
      <trkpt lat="43.57773" lon="1.34562">
        <ele>156</ele>
        <time>2015-05-29T10:44:15.000Z</time>
      </trkpt>
      <trkpt lat="43.57773" lon="1.34583">
        <ele>156</ele>
        <time>2015-05-29T10:44:19.000Z</time>
      </trkpt>
      <trkpt lat="43.57777" lon="1.34605">
        <ele>156</ele>
        <time>2015-05-29T10:44:23.000Z</time>
      </trkpt>
      <trkpt lat="43.57781" lon="1.34632">
        <ele>156</ele>
        <time>2015-05-29T10:44:28.000Z</time>
      </trkpt>
      <trkpt lat="43.57785" lon="1.34658">
        <ele>156</ele>
        <time>2015-05-29T10:44:33.000Z</time>
      </trkpt>
      <trkpt lat="43.57786" lon="1.34663">
        <ele>156</ele>
        <time>2015-05-29T10:44:34.000Z</time>
      </trkpt>
      <trkpt lat="43.57793" lon="1.3469">
        <ele>156</ele>
        <time>2015-05-29T10:44:39.000Z</time>
      </trkpt>
      <trkpt lat="43.57795" lon="1.34694">
        <ele>156</ele>
        <time>2015-05-29T10:44:40.000Z</time>
      </trkpt>
      <trkpt lat="43.57803" lon="1.34711">
        <ele>157</ele>
        <time>2015-05-29T10:44:44.000Z</time>
      </trkpt>
      <trkpt lat="43.57813" lon="1.34734">
        <ele>157</ele>
        <time>2015-05-29T10:44:49.000Z</time>
      </trkpt>
      <trkpt lat="43.57816" lon="1.34743">
        <ele>157</ele>
        <time>2015-05-29T10:44:51.000Z</time>
      </trkpt>
      <trkpt lat="43.57828" lon="1.34765">
        <ele>158</ele>
        <time>2015-05-29T10:44:56.000Z</time>
      </trkpt>
      <trkpt lat="43.57831" lon="1.34768">
        <ele>158</ele>
        <time>2015-05-29T10:44:57.000Z</time>
      </trkpt>
      <trkpt lat="43.57844" lon="1.34786">
        <ele>158</ele>
        <time>2015-05-29T10:45:02.000Z</time>
      </trkpt>
      <trkpt lat="43.57854" lon="1.3481">
        <ele>158</ele>
        <time>2015-05-29T10:45:07.000Z</time>
      </trkpt>
      <trkpt lat="43.57855" lon="1.34815">
        <ele>158</ele>
        <time>2015-05-29T10:45:08.000Z</time>
      </trkpt>
      <trkpt lat="43.57868" lon="1.34828">
        <ele>158</ele>
        <time>2015-05-29T10:45:12.000Z</time>
      </trkpt>
      <trkpt lat="43.57876" lon="1.34831">
        <ele>158</ele>
        <time>2015-05-29T10:45:14.000Z</time>
      </trkpt>
      <trkpt lat="43.57885" lon="1.34836">
        <ele>158</ele>
        <time>2015-05-29T10:45:17.000Z</time>
      </trkpt>
      <trkpt lat="43.57887" lon="1.34843">
        <ele>158</ele>
        <time>2015-05-29T10:45:21.000Z</time>
      </trkpt>
      <trkpt lat="43.57889" lon="1.34848">
        <ele>158</ele>
        <time>2015-05-29T10:45:25.000Z</time>
      </trkpt>
      <trkpt lat="43.57889" lon="1.3485">
        <ele>158</ele>
        <time>2015-05-29T10:45:28.000Z</time>
      </trkpt>
      <trkpt lat="43.57895" lon="1.34858">
        <ele>158</ele>
        <time>2015-05-29T10:45:35.000Z</time>
      </trkpt>
      <trkpt lat="43.57898" lon="1.34867">
        <ele>158</ele>
        <time>2015-05-29T10:45:41.000Z</time>
      </trkpt>
      <trkpt lat="43.57905" lon="1.34874">
        <ele>158</ele>
        <time>2015-05-29T10:45:47.000Z</time>
      </trkpt>
      <trkpt lat="43.57911" lon="1.3488">
        <ele>157</ele>
        <time>2015-05-29T10:45:54.000Z</time>
      </trkpt>
      <trkpt lat="43.57918" lon="1.34893">
        <ele>157</ele>
        <time>2015-05-29T10:46:03.000Z</time>
      </trkpt>
      <trkpt lat="43.57926" lon="1.34899">
        <ele>157</ele>
        <time>2015-05-29T10:46:09.000Z</time>
      </trkpt>
      <trkpt lat="43.57931" lon="1.34905">
        <ele>157</ele>
        <time>2015-05-29T10:46:16.000Z</time>
      </trkpt>
      <trkpt lat="43.57938" lon="1.34909">
        <ele>156</ele>
        <time>2015-05-29T10:46:20.000Z</time>
      </trkpt>
      <trkpt lat="43.57948" lon="1.34917">
        <ele>155</ele>
        <time>2015-05-29T10:46:26.000Z</time>
      </trkpt>
      <trkpt lat="43.57961" lon="1.34925">
        <ele>155</ele>
        <time>2015-05-29T10:46:31.000Z</time>
      </trkpt>
      <trkpt lat="43.57974" lon="1.34936">
        <ele>155</ele>
        <time>2015-05-29T10:46:37.000Z</time>
      </trkpt>
      <trkpt lat="43.57989" lon="1.34951">
        <ele>155</ele>
        <time>2015-05-29T10:46:43.000Z</time>
      </trkpt>
      <trkpt lat="43.57992" lon="1.34955">
        <ele>155</ele>
        <time>2015-05-29T10:46:44.000Z</time>
      </trkpt>
      <trkpt lat="43.58003" lon="1.3497">
        <ele>154</ele>
        <time>2015-05-29T10:46:48.000Z</time>
      </trkpt>
      <trkpt lat="43.58019" lon="1.34985">
        <ele>154</ele>
        <time>2015-05-29T10:46:53.000Z</time>
      </trkpt>
      <trkpt lat="43.58036" lon="1.34995">
        <ele>154</ele>
        <time>2015-05-29T10:46:58.000Z</time>
      </trkpt>
      <trkpt lat="43.58053" lon="1.35001">
        <ele>154</ele>
        <time>2015-05-29T10:47:03.000Z</time>
      </trkpt>
      <trkpt lat="43.58071" lon="1.35004">
        <ele>154</ele>
        <time>2015-05-29T10:47:08.000Z</time>
      </trkpt>
      <trkpt lat="43.58088" lon="1.35008">
        <ele>155</ele>
        <time>2015-05-29T10:47:13.000Z</time>
      </trkpt>
      <trkpt lat="43.58105" lon="1.35013">
        <ele>155</ele>
        <time>2015-05-29T10:47:18.000Z</time>
      </trkpt>
      <trkpt lat="43.58121" lon="1.35021">
        <ele>155</ele>
        <time>2015-05-29T10:47:23.000Z</time>
      </trkpt>
      <trkpt lat="43.58135" lon="1.3503">
        <ele>156</ele>
        <time>2015-05-29T10:47:28.000Z</time>
      </trkpt>
      <trkpt lat="43.58147" lon="1.35041">
        <ele>156</ele>
        <time>2015-05-29T10:47:32.000Z</time>
      </trkpt>
      <trkpt lat="43.58155" lon="1.35058">
        <ele>156</ele>
        <time>2015-05-29T10:47:36.000Z</time>
      </trkpt>
      <trkpt lat="43.58168" lon="1.35067">
        <ele>156</ele>
        <time>2015-05-29T10:47:40.000Z</time>
      </trkpt>
      <trkpt lat="43.58184" lon="1.35059">
        <ele>156</ele>
        <time>2015-05-29T10:47:44.000Z</time>
      </trkpt>
      <trkpt lat="43.58196" lon="1.3506">
        <ele>156</ele>
        <time>2015-05-29T10:47:48.000Z</time>
      </trkpt>
      <trkpt lat="43.58204" lon="1.35069">
        <ele>155</ele>
        <time>2015-05-29T10:47:52.000Z</time>
      </trkpt>
      <trkpt lat="43.58216" lon="1.35085">
        <ele>154</ele>
        <time>2015-05-29T10:47:57.000Z</time>
      </trkpt>
      <trkpt lat="43.5823" lon="1.35102">
        <ele>154</ele>
        <time>2015-05-29T10:48:02.000Z</time>
      </trkpt>
      <trkpt lat="43.58242" lon="1.35097">
        <ele>153</ele>
        <time>2015-05-29T10:48:06.000Z</time>
      </trkpt>
      <trkpt lat="43.58255" lon="1.3509">
        <ele>153</ele>
        <time>2015-05-29T10:48:10.000Z</time>
      </trkpt>
      <trkpt lat="43.58276" lon="1.35088">
        <ele>154</ele>
        <time>2015-05-29T10:48:15.000Z</time>
      </trkpt>
      <trkpt lat="43.5828" lon="1.35088">
        <ele>154</ele>
        <time>2015-05-29T10:48:16.000Z</time>
      </trkpt>
      <trkpt lat="43.58302" lon="1.35088">
        <ele>155</ele>
        <time>2015-05-29T10:48:22.000Z</time>
      </trkpt>
      <trkpt lat="43.58319" lon="1.35093">
        <ele>156</ele>
        <time>2015-05-29T10:48:27.000Z</time>
      </trkpt>
      <trkpt lat="43.5833" lon="1.35109">
        <ele>155</ele>
        <time>2015-05-29T10:48:32.000Z</time>
      </trkpt>
      <trkpt lat="43.58341" lon="1.35128">
        <ele>157</ele>
        <time>2015-05-29T10:48:36.000Z</time>
      </trkpt>
      <trkpt lat="43.5835" lon="1.35147">
        <ele>156</ele>
        <time>2015-05-29T10:48:40.000Z</time>
      </trkpt>
      <trkpt lat="43.5836" lon="1.35165">
        <ele>156</ele>
        <time>2015-05-29T10:48:44.000Z</time>
      </trkpt>
      <trkpt lat="43.58362" lon="1.35169">
        <ele>155</ele>
        <time>2015-05-29T10:48:45.000Z</time>
      </trkpt>
      <trkpt lat="43.58367" lon="1.35178">
        <ele>155</ele>
        <time>2015-05-29T10:48:47.000Z</time>
      </trkpt>
      <trkpt lat="43.5837" lon="1.35181">
        <ele>155</ele>
        <time>2015-05-29T10:48:48.000Z</time>
      </trkpt>
      <trkpt lat="43.58378" lon="1.35193">
        <ele>155</ele>
        <time>2015-05-29T10:48:51.000Z</time>
      </trkpt>
      <trkpt lat="43.58381" lon="1.35197">
        <ele>155</ele>
        <time>2015-05-29T10:48:55.000Z</time>
      </trkpt>
      <trkpt lat="43.58381" lon="1.35199">
        <ele>155</ele>
        <time>2015-05-29T10:48:57.000Z</time>
      </trkpt>
      <trkpt lat="43.58381" lon="1.35204">
        <ele>155</ele>
        <time>2015-05-29T10:49:01.000Z</time>
      </trkpt>
      <trkpt lat="43.58383" lon="1.35211">
        <ele>155</ele>
        <time>2015-05-29T10:49:07.000Z</time>
      </trkpt>
      <trkpt lat="43.58384" lon="1.35217">
        <ele>155</ele>
        <time>2015-05-29T10:49:12.000Z</time>
      </trkpt>
      <trkpt lat="43.58384" lon="1.35218">
        <ele>155</ele>
        <time>2015-05-29T10:49:13.000Z</time>
      </trkpt>
      <trkpt lat="43.58385" lon="1.35228">
        <ele>155</ele>
        <time>2015-05-29T10:49:20.000Z</time>
      </trkpt>
      <trkpt lat="43.58386" lon="1.35239">
        <ele>155</ele>
        <time>2015-05-29T10:49:28.000Z</time>
      </trkpt>
      <trkpt lat="43.58387" lon="1.35249">
        <ele>155</ele>
        <time>2015-05-29T10:49:34.000Z</time>
      </trkpt>
      <trkpt lat="43.58387" lon="1.35253">
        <ele>154</ele>
        <time>2015-05-29T10:49:36.000Z</time>
      </trkpt>
      <trkpt lat="43.58387" lon="1.35257">
        <ele>154</ele>
        <time>2015-05-29T10:49:38.000Z</time>
      </trkpt>
      <trkpt lat="43.58387" lon="1.35261">
        <ele>154</ele>
        <time>2015-05-29T10:49:40.000Z</time>
      </trkpt>
      <trkpt lat="43.58388" lon="1.35266">
        <ele>154</ele>
        <time>2015-05-29T10:49:43.000Z</time>
      </trkpt>
      <trkpt lat="43.58388" lon="1.35276">
        <ele>154</ele>
        <time>2015-05-29T10:49:49.000Z</time>
      </trkpt>
      <trkpt lat="43.58389" lon="1.35278">
        <ele>154</ele>
        <time>2015-05-29T10:49:52.000Z</time>
      </trkpt>
      <trkpt lat="43.58389" lon="1.35279">
        <ele>154</ele>
        <time>2015-05-29T10:49:53.000Z</time>
      </trkpt>
      <trkpt lat="43.58392" lon="1.35286">
        <ele>154</ele>
        <time>2015-05-29T10:49:58.000Z</time>
      </trkpt>
      <trkpt lat="43.58393" lon="1.3529">
        <ele>153</ele>
        <time>2015-05-29T10:50:00.000Z</time>
      </trkpt>
      <trkpt lat="43.58394" lon="1.35295">
        <ele>153</ele>
        <time>2015-05-29T10:50:03.000Z</time>
      </trkpt>
      <trkpt lat="43.58394" lon="1.35301">
        <ele>153</ele>
        <time>2015-05-29T10:50:06.000Z</time>
      </trkpt>
      <trkpt lat="43.58395" lon="1.35304">
        <ele>153</ele>
        <time>2015-05-29T10:50:07.000Z</time>
      </trkpt>
      <trkpt lat="43.58395" lon="1.35317">
        <ele>153</ele>
        <time>2015-05-29T10:50:11.000Z</time>
      </trkpt>
      <trkpt lat="43.58399" lon="1.35331">
        <ele>153</ele>
        <time>2015-05-29T10:50:15.000Z</time>
      </trkpt>
      <trkpt lat="43.58402" lon="1.35337">
        <ele>153</ele>
        <time>2015-05-29T10:50:17.000Z</time>
      </trkpt>
      <trkpt lat="43.58404" lon="1.35339">
        <ele>153</ele>
        <time>2015-05-29T10:50:18.000Z</time>
      </trkpt>
      <trkpt lat="43.58416" lon="1.35347">
        <ele>153</ele>
        <time>2015-05-29T10:50:22.000Z</time>
      </trkpt>
      <trkpt lat="43.58431" lon="1.35354">
        <ele>153</ele>
        <time>2015-05-29T10:50:27.000Z</time>
      </trkpt>
      <trkpt lat="43.58447" lon="1.35366">
        <ele>153</ele>
        <time>2015-05-29T10:50:33.000Z</time>
      </trkpt>
      <trkpt lat="43.58461" lon="1.3538">
        <ele>153</ele>
        <time>2015-05-29T10:50:38.000Z</time>
      </trkpt>
      <trkpt lat="43.58459" lon="1.35388">
        <ele>153</ele>
        <time>2015-05-29T10:50:40.000Z</time>
      </trkpt>
      <trkpt lat="43.58459" lon="1.35392">
        <ele>153</ele>
        <time>2015-05-29T10:50:41.000Z</time>
      </trkpt>
      <trkpt lat="43.58463" lon="1.35418">
        <ele>153</ele>
        <time>2015-05-29T10:50:46.000Z</time>
      </trkpt>
      <trkpt lat="43.58463" lon="1.35423">
        <ele>153</ele>
        <time>2015-05-29T10:50:47.000Z</time>
      </trkpt>
      <trkpt lat="43.58468" lon="1.35446">
        <ele>153</ele>
        <time>2015-05-29T10:50:51.000Z</time>
      </trkpt>
      <trkpt lat="43.58466" lon="1.35465">
        <ele>152</ele>
        <time>2015-05-29T10:50:55.000Z</time>
      </trkpt>
      <trkpt lat="43.58461" lon="1.35486">
        <ele>152</ele>
        <time>2015-05-29T10:50:59.000Z</time>
      </trkpt>
      <trkpt lat="43.58454" lon="1.35505">
        <ele>152</ele>
        <time>2015-05-29T10:51:03.000Z</time>
      </trkpt>
      <trkpt lat="43.58444" lon="1.3553">
        <ele>153</ele>
        <time>2015-05-29T10:51:09.000Z</time>
      </trkpt>
      <trkpt lat="43.58438" lon="1.35556">
        <ele>153</ele>
        <time>2015-05-29T10:51:14.000Z</time>
      </trkpt>
      <trkpt lat="43.58431" lon="1.35572">
        <ele>154</ele>
        <time>2015-05-29T10:51:18.000Z</time>
      </trkpt>
      <trkpt lat="43.5842" lon="1.35593">
        <ele>154</ele>
        <time>2015-05-29T10:51:23.000Z</time>
      </trkpt>
      <trkpt lat="43.58414" lon="1.35615">
        <ele>154</ele>
        <time>2015-05-29T10:51:27.000Z</time>
      </trkpt>
      <trkpt lat="43.58405" lon="1.35636">
        <ele>153</ele>
        <time>2015-05-29T10:51:32.000Z</time>
      </trkpt>
      <trkpt lat="43.58391" lon="1.35659">
        <ele>153</ele>
        <time>2015-05-29T10:51:38.000Z</time>
      </trkpt>
      <trkpt lat="43.58376" lon="1.35677">
        <ele>152</ele>
        <time>2015-05-29T10:51:43.000Z</time>
      </trkpt>
      <trkpt lat="43.58372" lon="1.3568">
        <ele>152</ele>
        <time>2015-05-29T10:51:44.000Z</time>
      </trkpt>
      <trkpt lat="43.58356" lon="1.35692">
        <ele>152</ele>
        <time>2015-05-29T10:51:50.000Z</time>
      </trkpt>
      <trkpt lat="43.58343" lon="1.35706">
        <ele>152</ele>
        <time>2015-05-29T10:51:54.000Z</time>
      </trkpt>
      <trkpt lat="43.5834" lon="1.3573">
        <ele>151</ele>
        <time>2015-05-29T10:51:58.000Z</time>
      </trkpt>
      <trkpt lat="43.58337" lon="1.35748">
        <ele>150</ele>
        <time>2015-05-29T10:52:02.000Z</time>
      </trkpt>
      <trkpt lat="43.58337" lon="1.35772">
        <ele>151</ele>
        <time>2015-05-29T10:52:07.000Z</time>
      </trkpt>
      <trkpt lat="43.58346" lon="1.35796">
        <ele>151</ele>
        <time>2015-05-29T10:52:12.000Z</time>
      </trkpt>
      <trkpt lat="43.58357" lon="1.35814">
        <ele>151</ele>
        <time>2015-05-29T10:52:16.000Z</time>
      </trkpt>
      <trkpt lat="43.58364" lon="1.35822">
        <ele>151</ele>
        <time>2015-05-29T10:52:18.000Z</time>
      </trkpt>
      <trkpt lat="43.58372" lon="1.35821">
        <ele>151</ele>
        <time>2015-05-29T10:52:20.000Z</time>
      </trkpt>
      <trkpt lat="43.5838" lon="1.35823">
        <ele>151</ele>
        <time>2015-05-29T10:52:22.000Z</time>
      </trkpt>
      <trkpt lat="43.58384" lon="1.35826">
        <ele>151</ele>
        <time>2015-05-29T10:52:24.000Z</time>
      </trkpt>
      <trkpt lat="43.58385" lon="1.35832">
        <ele>151</ele>
        <time>2015-05-29T10:52:28.000Z</time>
      </trkpt>
      <trkpt lat="43.58387" lon="1.35839">
        <ele>152</ele>
        <time>2015-05-29T10:52:34.000Z</time>
      </trkpt>
      <trkpt lat="43.58389" lon="1.35844">
        <ele>152</ele>
        <time>2015-05-29T10:52:38.000Z</time>
      </trkpt>
      <trkpt lat="43.58394" lon="1.35849">
        <ele>152</ele>
        <time>2015-05-29T10:52:43.000Z</time>
      </trkpt>
      <trkpt lat="43.58396" lon="1.35857">
        <ele>152</ele>
        <time>2015-05-29T10:52:49.000Z</time>
      </trkpt>
      <trkpt lat="43.58398" lon="1.35861">
        <ele>152</ele>
        <time>2015-05-29T10:52:52.000Z</time>
      </trkpt>
      <trkpt lat="43.584" lon="1.35868">
        <ele>152</ele>
        <time>2015-05-29T10:52:57.000Z</time>
      </trkpt>
      <trkpt lat="43.58402" lon="1.35879">
        <ele>153</ele>
        <time>2015-05-29T10:53:03.000Z</time>
      </trkpt>
      <trkpt lat="43.58404" lon="1.35887">
        <ele>153</ele>
        <time>2015-05-29T10:53:08.000Z</time>
      </trkpt>
      <trkpt lat="43.58404" lon="1.35892">
        <ele>153</ele>
        <time>2015-05-29T10:53:11.000Z</time>
      </trkpt>
      <trkpt lat="43.58405" lon="1.35894">
        <ele>153</ele>
        <time>2015-05-29T10:53:12.000Z</time>
      </trkpt>
      <trkpt lat="43.58409" lon="1.359">
        <ele>153</ele>
        <time>2015-05-29T10:53:17.000Z</time>
      </trkpt>
      <trkpt lat="43.58411" lon="1.35905">
        <ele>153</ele>
        <time>2015-05-29T10:53:21.000Z</time>
      </trkpt>
      <trkpt lat="43.5841" lon="1.35906">
        <ele>153</ele>
        <time>2015-05-29T10:53:22.000Z</time>
      </trkpt>
      <trkpt lat="43.58412" lon="1.35908">
        <ele>153</ele>
        <time>2015-05-29T10:53:23.000Z</time>
      </trkpt>
      <trkpt lat="43.58414" lon="1.35914">
        <ele>154</ele>
        <time>2015-05-29T10:53:28.000Z</time>
      </trkpt>
      <trkpt lat="43.58415" lon="1.35917">
        <ele>154</ele>
        <time>2015-05-29T10:53:31.000Z</time>
      </trkpt>
      <trkpt lat="43.58416" lon="1.35922">
        <ele>154</ele>
        <time>2015-05-29T10:53:34.000Z</time>
      </trkpt>
      <trkpt lat="43.5842" lon="1.35931">
        <ele>154</ele>
        <time>2015-05-29T10:53:40.000Z</time>
      </trkpt>
      <trkpt lat="43.58428" lon="1.35941">
        <ele>153</ele>
        <time>2015-05-29T10:53:44.000Z</time>
      </trkpt>
      <trkpt lat="43.58436" lon="1.35954">
        <ele>153</ele>
        <time>2015-05-29T10:53:48.000Z</time>
      </trkpt>
      <trkpt lat="43.58443" lon="1.35964">
        <ele>153</ele>
        <time>2015-05-29T10:53:50.000Z</time>
      </trkpt>
      <trkpt lat="43.5845" lon="1.35975">
        <ele>153</ele>
        <time>2015-05-29T10:53:52.000Z</time>
      </trkpt>
      <trkpt lat="43.58461" lon="1.35986">
        <ele>153</ele>
        <time>2015-05-29T10:53:56.000Z</time>
      </trkpt>
      <trkpt lat="43.58471" lon="1.36">
        <ele>152</ele>
        <time>2015-05-29T10:54:01.000Z</time>
      </trkpt>
      <trkpt lat="43.5848" lon="1.36013">
        <ele>152</ele>
        <time>2015-05-29T10:54:06.000Z</time>
      </trkpt>
      <trkpt lat="43.58491" lon="1.36031">
        <ele>152</ele>
        <time>2015-05-29T10:54:11.000Z</time>
      </trkpt>
      <trkpt lat="43.58502" lon="1.36051">
        <ele>151</ele>
        <time>2015-05-29T10:54:16.000Z</time>
      </trkpt>
      <trkpt lat="43.58516" lon="1.3607">
        <ele>151</ele>
        <time>2015-05-29T10:54:21.000Z</time>
      </trkpt>
      <trkpt lat="43.5853" lon="1.3608">
        <ele>151</ele>
        <time>2015-05-29T10:54:26.000Z</time>
      </trkpt>
      <trkpt lat="43.58545" lon="1.36095">
        <ele>150</ele>
        <time>2015-05-29T10:54:32.000Z</time>
      </trkpt>
      <trkpt lat="43.58561" lon="1.3611">
        <ele>150</ele>
        <time>2015-05-29T10:54:37.000Z</time>
      </trkpt>
      <trkpt lat="43.58579" lon="1.36125">
        <ele>150</ele>
        <time>2015-05-29T10:54:43.000Z</time>
      </trkpt>
      <trkpt lat="43.58595" lon="1.36139">
        <ele>149</ele>
        <time>2015-05-29T10:54:48.000Z</time>
      </trkpt>
      <trkpt lat="43.58609" lon="1.36156">
        <ele>149</ele>
        <time>2015-05-29T10:54:53.000Z</time>
      </trkpt>
      <trkpt lat="43.58622" lon="1.36159">
        <ele>149</ele>
        <time>2015-05-29T10:54:57.000Z</time>
      </trkpt>
      <trkpt lat="43.58638" lon="1.36154">
        <ele>148</ele>
        <time>2015-05-29T10:55:02.000Z</time>
      </trkpt>
      <trkpt lat="43.58654" lon="1.36145">
        <ele>148</ele>
        <time>2015-05-29T10:55:07.000Z</time>
      </trkpt>
      <trkpt lat="43.58667" lon="1.3614">
        <ele>148</ele>
        <time>2015-05-29T10:55:11.000Z</time>
      </trkpt>
      <trkpt lat="43.58683" lon="1.36133">
        <ele>149</ele>
        <time>2015-05-29T10:55:16.000Z</time>
      </trkpt>
      <trkpt lat="43.58699" lon="1.36125">
        <ele>149</ele>
        <time>2015-05-29T10:55:21.000Z</time>
      </trkpt>
      <trkpt lat="43.58716" lon="1.36115">
        <ele>150</ele>
        <time>2015-05-29T10:55:26.000Z</time>
      </trkpt>
      <trkpt lat="43.5873" lon="1.36105">
        <ele>150</ele>
        <time>2015-05-29T10:55:31.000Z</time>
      </trkpt>
      <trkpt lat="43.58749" lon="1.36099">
        <ele>150</ele>
        <time>2015-05-29T10:55:37.000Z</time>
      </trkpt>
      <trkpt lat="43.58766" lon="1.36093">
        <ele>151</ele>
        <time>2015-05-29T10:55:42.000Z</time>
      </trkpt>
      <trkpt lat="43.58778" lon="1.36087">
        <ele>151</ele>
        <time>2015-05-29T10:55:46.000Z</time>
      </trkpt>
      <trkpt lat="43.58792" lon="1.36078">
        <ele>153</ele>
        <time>2015-05-29T10:55:51.000Z</time>
      </trkpt>
      <trkpt lat="43.58809" lon="1.36071">
        <ele>154</ele>
        <time>2015-05-29T10:55:56.000Z</time>
      </trkpt>
      <trkpt lat="43.58826" lon="1.36064">
        <ele>154</ele>
        <time>2015-05-29T10:56:01.000Z</time>
      </trkpt>
      <trkpt lat="43.58836" lon="1.36057">
        <ele>155</ele>
        <time>2015-05-29T10:56:06.000Z</time>
      </trkpt>
      <trkpt lat="43.58839" lon="1.36056">
        <ele>155</ele>
        <time>2015-05-29T10:56:09.000Z</time>
      </trkpt>
      <trkpt lat="43.58841" lon="1.36055">
        <ele>155</ele>
        <time>2015-05-29T10:56:12.000Z</time>
      </trkpt>
      <trkpt lat="43.58845" lon="1.36053">
        <ele>155</ele>
        <time>2015-05-29T10:56:18.000Z</time>
      </trkpt>
      <trkpt lat="43.58853" lon="1.36052">
        <ele>155</ele>
        <time>2015-05-29T10:56:26.000Z</time>
      </trkpt>
      <trkpt lat="43.58853" lon="1.36053">
        <ele>155</ele>
        <time>2015-05-29T10:56:27.000Z</time>
      </trkpt>
      <trkpt lat="43.58855" lon="1.36057">
        <ele>155</ele>
        <time>2015-05-29T10:56:31.000Z</time>
      </trkpt>
      <trkpt lat="43.58855" lon="1.3606">
        <ele>155</ele>
        <time>2015-05-29T10:56:33.000Z</time>
      </trkpt>
      <trkpt lat="43.58853" lon="1.36066">
        <ele>155</ele>
        <time>2015-05-29T10:56:38.000Z</time>
      </trkpt>
      <trkpt lat="43.58853" lon="1.36075">
        <ele>155</ele>
        <time>2015-05-29T10:56:45.000Z</time>
      </trkpt>
      <trkpt lat="43.58855" lon="1.36087">
        <ele>154</ele>
        <time>2015-05-29T10:56:52.000Z</time>
      </trkpt>
      <trkpt lat="43.58855" lon="1.3609">
        <ele>154</ele>
        <time>2015-05-29T10:56:54.000Z</time>
      </trkpt>
      <trkpt lat="43.58857" lon="1.36096">
        <ele>154</ele>
        <time>2015-05-29T10:56:58.000Z</time>
      </trkpt>
      <trkpt lat="43.5886" lon="1.36102">
        <ele>154</ele>
        <time>2015-05-29T10:57:01.000Z</time>
      </trkpt>
      <trkpt lat="43.58862" lon="1.36112">
        <ele>154</ele>
        <time>2015-05-29T10:57:07.000Z</time>
      </trkpt>
      <trkpt lat="43.58862" lon="1.36118">
        <ele>154</ele>
        <time>2015-05-29T10:57:11.000Z</time>
      </trkpt>
      <trkpt lat="43.58859" lon="1.36121">
        <ele>154</ele>
        <time>2015-05-29T10:57:14.000Z</time>
      </trkpt>
      <trkpt lat="43.58857" lon="1.36121">
        <ele>154</ele>
        <time>2015-05-29T10:57:15.000Z</time>
      </trkpt>
      <trkpt lat="43.58848" lon="1.36126">
        <ele>154</ele>
        <time>2015-05-29T10:57:22.000Z</time>
      </trkpt>
      <trkpt lat="43.58838" lon="1.3613">
        <ele>154</ele>
        <time>2015-05-29T10:57:29.000Z</time>
      </trkpt>
      <trkpt lat="43.58832" lon="1.36132">
        <ele>152</ele>
        <time>2015-05-29T10:57:31.000Z</time>
      </trkpt>
      <trkpt lat="43.58825" lon="1.36136">
        <ele>152</ele>
        <time>2015-05-29T10:57:33.000Z</time>
      </trkpt>
      <trkpt lat="43.58805" lon="1.36142">
        <ele>151</ele>
        <time>2015-05-29T10:57:38.000Z</time>
      </trkpt>
      <trkpt lat="43.58786" lon="1.36152">
        <ele>151</ele>
        <time>2015-05-29T10:57:43.000Z</time>
      </trkpt>
      <trkpt lat="43.58782" lon="1.36153">
        <ele>151</ele>
        <time>2015-05-29T10:57:44.000Z</time>
      </trkpt>
      <trkpt lat="43.5876" lon="1.3616">
        <ele>149</ele>
        <time>2015-05-29T10:57:49.000Z</time>
      </trkpt>
      <trkpt lat="43.58749" lon="1.36164">
        <ele>148</ele>
        <time>2015-05-29T10:57:52.000Z</time>
      </trkpt>
      <trkpt lat="43.58741" lon="1.36169">
        <ele>147</ele>
        <time>2015-05-29T10:57:54.000Z</time>
      </trkpt>
      <trkpt lat="43.58737" lon="1.3617">
        <ele>147</ele>
        <time>2015-05-29T10:57:55.000Z</time>
      </trkpt>
      <trkpt lat="43.58724" lon="1.36175">
        <ele>146</ele>
        <time>2015-05-29T10:57:59.000Z</time>
      </trkpt>
      <trkpt lat="43.58716" lon="1.36177">
        <ele>146</ele>
        <time>2015-05-29T10:58:01.000Z</time>
      </trkpt>
      <trkpt lat="43.58703" lon="1.36182">
        <ele>146</ele>
        <time>2015-05-29T10:58:05.000Z</time>
      </trkpt>
      <trkpt lat="43.58686" lon="1.36188">
        <ele>146</ele>
        <time>2015-05-29T10:58:10.000Z</time>
      </trkpt>
      <trkpt lat="43.58677" lon="1.36195">
        <ele>145</ele>
        <time>2015-05-29T10:58:13.000Z</time>
      </trkpt>
      <trkpt lat="43.5866" lon="1.36205">
        <ele>147</ele>
        <time>2015-05-29T10:58:18.000Z</time>
      </trkpt>
      <trkpt lat="43.58656" lon="1.36207">
        <ele>147</ele>
        <time>2015-05-29T10:58:19.000Z</time>
      </trkpt>
      <trkpt lat="43.58644" lon="1.36211">
        <ele>147</ele>
        <time>2015-05-29T10:58:23.000Z</time>
      </trkpt>
      <trkpt lat="43.58627" lon="1.36219">
        <ele>147</ele>
        <time>2015-05-29T10:58:28.000Z</time>
      </trkpt>
      <trkpt lat="43.58607" lon="1.36229">
        <ele>148</ele>
        <time>2015-05-29T10:58:34.000Z</time>
      </trkpt>
      <trkpt lat="43.58587" lon="1.3624">
        <ele>149</ele>
        <time>2015-05-29T10:58:40.000Z</time>
      </trkpt>
      <trkpt lat="43.58568" lon="1.3625">
        <ele>150</ele>
        <time>2015-05-29T10:58:46.000Z</time>
      </trkpt>
      <trkpt lat="43.58549" lon="1.36259">
        <ele>150</ele>
        <time>2015-05-29T10:58:51.000Z</time>
      </trkpt>
      <trkpt lat="43.58532" lon="1.36266">
        <ele>151</ele>
        <time>2015-05-29T10:58:56.000Z</time>
      </trkpt>
      <trkpt lat="43.58514" lon="1.36276">
        <ele>151</ele>
        <time>2015-05-29T10:59:01.000Z</time>
      </trkpt>
      <trkpt lat="43.585" lon="1.36289">
        <ele>152</ele>
        <time>2015-05-29T10:59:05.000Z</time>
      </trkpt>
      <trkpt lat="43.58488" lon="1.36297">
        <ele>152</ele>
        <time>2015-05-29T10:59:09.000Z</time>
      </trkpt>
      <trkpt lat="43.58469" lon="1.36304">
        <ele>152</ele>
        <time>2015-05-29T10:59:15.000Z</time>
      </trkpt>
      <trkpt lat="43.58454" lon="1.36312">
        <ele>153</ele>
        <time>2015-05-29T10:59:20.000Z</time>
      </trkpt>
      <trkpt lat="43.58451" lon="1.36326">
        <ele>153</ele>
        <time>2015-05-29T10:59:24.000Z</time>
      </trkpt>
      <trkpt lat="43.58456" lon="1.36351">
        <ele>155</ele>
        <time>2015-05-29T10:59:29.000Z</time>
      </trkpt>
      <trkpt lat="43.58446" lon="1.36357">
        <ele>155</ele>
        <time>2015-05-29T10:59:33.000Z</time>
      </trkpt>
      <trkpt lat="43.58438" lon="1.36358">
        <ele>155</ele>
        <time>2015-05-29T10:59:35.000Z</time>
      </trkpt>
      <trkpt lat="43.5843" lon="1.3636">
        <ele>155</ele>
        <time>2015-05-29T10:59:38.000Z</time>
      </trkpt>
      <trkpt lat="43.58427" lon="1.36361">
        <ele>155</ele>
        <time>2015-05-29T10:59:42.000Z</time>
      </trkpt>
      <trkpt lat="43.58421" lon="1.36361">
        <ele>155</ele>
        <time>2015-05-29T10:59:49.000Z</time>
      </trkpt>
      <trkpt lat="43.58417" lon="1.36362">
        <ele>156</ele>
        <time>2015-05-29T10:59:54.000Z</time>
      </trkpt>
      <trkpt lat="43.58415" lon="1.36363">
        <ele>157</ele>
        <time>2015-05-29T10:59:56.000Z</time>
      </trkpt>
      <trkpt lat="43.58409" lon="1.36366">
        <ele>157</ele>
        <time>2015-05-29T11:00:03.000Z</time>
      </trkpt>
      <trkpt lat="43.58409" lon="1.36368">
        <ele>157</ele>
        <time>2015-05-29T11:00:05.000Z</time>
      </trkpt>
      <trkpt lat="43.58405" lon="1.36369">
        <ele>157</ele>
        <time>2015-05-29T11:00:09.000Z</time>
      </trkpt>
      <trkpt lat="43.58396" lon="1.36372">
        <ele>157</ele>
        <time>2015-05-29T11:00:18.000Z</time>
      </trkpt>
      <trkpt lat="43.58391" lon="1.36374">
        <ele>157</ele>
        <time>2015-05-29T11:00:23.000Z</time>
      </trkpt>
      <trkpt lat="43.58389" lon="1.36374">
        <ele>157</ele>
        <time>2015-05-29T11:00:25.000Z</time>
      </trkpt>
      <trkpt lat="43.58385" lon="1.36376">
        <ele>157</ele>
        <time>2015-05-29T11:00:29.000Z</time>
      </trkpt>
      <trkpt lat="43.58383" lon="1.36376">
        <ele>157</ele>
        <time>2015-05-29T11:00:31.000Z</time>
      </trkpt>
      <trkpt lat="43.58382" lon="1.36377">
        <ele>157</ele>
        <time>2015-05-29T11:00:32.000Z</time>
      </trkpt>
      <trkpt lat="43.58374" lon="1.36379">
        <ele>157</ele>
        <time>2015-05-29T11:00:39.000Z</time>
      </trkpt>
      <trkpt lat="43.58367" lon="1.36375">
        <ele>157</ele>
        <time>2015-05-29T11:00:46.000Z</time>
      </trkpt>
      <trkpt lat="43.58363" lon="1.36374">
        <ele>157</ele>
        <time>2015-05-29T11:00:50.000Z</time>
      </trkpt>
      <trkpt lat="43.58359" lon="1.36372">
        <ele>157</ele>
        <time>2015-05-29T11:00:53.000Z</time>
      </trkpt>
      <trkpt lat="43.58347" lon="1.36372">
        <ele>157</ele>
        <time>2015-05-29T11:00:58.000Z</time>
      </trkpt>
      <trkpt lat="43.58334" lon="1.36376">
        <ele>157</ele>
        <time>2015-05-29T11:01:04.000Z</time>
      </trkpt>
      <trkpt lat="43.5833" lon="1.36377">
        <ele>158</ele>
        <time>2015-05-29T11:01:05.000Z</time>
      </trkpt>
      <trkpt lat="43.58316" lon="1.36385">
        <ele>158</ele>
        <time>2015-05-29T11:01:09.000Z</time>
      </trkpt>
      <trkpt lat="43.58297" lon="1.36397">
        <ele>159</ele>
        <time>2015-05-29T11:01:14.000Z</time>
      </trkpt>
      <trkpt lat="43.58279" lon="1.36409">
        <ele>159</ele>
        <time>2015-05-29T11:01:19.000Z</time>
      </trkpt>
      <trkpt lat="43.58276" lon="1.36412">
        <ele>159</ele>
        <time>2015-05-29T11:01:20.000Z</time>
      </trkpt>
      <trkpt lat="43.58258" lon="1.36423">
        <ele>160</ele>
        <time>2015-05-29T11:01:25.000Z</time>
      </trkpt>
      <trkpt lat="43.58239" lon="1.36434">
        <ele>159</ele>
        <time>2015-05-29T11:01:31.000Z</time>
      </trkpt>
      <trkpt lat="43.58222" lon="1.36442">
        <ele>158</ele>
        <time>2015-05-29T11:01:36.000Z</time>
      </trkpt>
      <trkpt lat="43.58203" lon="1.36454">
        <ele>158</ele>
        <time>2015-05-29T11:01:42.000Z</time>
      </trkpt>
      <trkpt lat="43.58184" lon="1.36467">
        <ele>158</ele>
        <time>2015-05-29T11:01:48.000Z</time>
      </trkpt>
      <trkpt lat="43.58168" lon="1.36474">
        <ele>157</ele>
        <time>2015-05-29T11:01:53.000Z</time>
      </trkpt>
      <trkpt lat="43.58151" lon="1.36484">
        <ele>157</ele>
        <time>2015-05-29T11:01:58.000Z</time>
      </trkpt>
      <trkpt lat="43.58135" lon="1.36494">
        <ele>157</ele>
        <time>2015-05-29T11:02:03.000Z</time>
      </trkpt>
      <trkpt lat="43.5812" lon="1.36503">
        <ele>157</ele>
        <time>2015-05-29T11:02:08.000Z</time>
      </trkpt>
      <trkpt lat="43.58107" lon="1.36513">
        <ele>157</ele>
        <time>2015-05-29T11:02:12.000Z</time>
      </trkpt>
      <trkpt lat="43.58091" lon="1.36515">
        <ele>157</ele>
        <time>2015-05-29T11:02:18.000Z</time>
      </trkpt>
      <trkpt lat="43.58089" lon="1.36501">
        <ele>156</ele>
        <time>2015-05-29T11:02:21.000Z</time>
      </trkpt>
      <trkpt lat="43.58085" lon="1.36478">
        <ele>157</ele>
        <time>2015-05-29T11:02:26.000Z</time>
      </trkpt>
      <trkpt lat="43.58077" lon="1.36453">
        <ele>158</ele>
        <time>2015-05-29T11:02:31.000Z</time>
      </trkpt>
      <trkpt lat="43.58076" lon="1.36448">
        <ele>159</ele>
        <time>2015-05-29T11:02:32.000Z</time>
      </trkpt>
      <trkpt lat="43.5807" lon="1.36426">
        <ele>159</ele>
        <time>2015-05-29T11:02:37.000Z</time>
      </trkpt>
      <trkpt lat="43.58069" lon="1.36407">
        <ele>159</ele>
        <time>2015-05-29T11:02:41.000Z</time>
      </trkpt>
      <trkpt lat="43.58064" lon="1.36378">
        <ele>159</ele>
        <time>2015-05-29T11:02:47.000Z</time>
      </trkpt>
      <trkpt lat="43.58062" lon="1.36359">
        <ele>159</ele>
        <time>2015-05-29T11:02:51.000Z</time>
      </trkpt>
      <trkpt lat="43.58059" lon="1.36342">
        <ele>158</ele>
        <time>2015-05-29T11:02:55.000Z</time>
      </trkpt>
      <trkpt lat="43.58055" lon="1.36315">
        <ele>157</ele>
        <time>2015-05-29T11:03:00.000Z</time>
      </trkpt>
      <trkpt lat="43.5805" lon="1.36294">
        <ele>157</ele>
        <time>2015-05-29T11:03:04.000Z</time>
      </trkpt>
      <trkpt lat="43.58048" lon="1.36268">
        <ele>157</ele>
        <time>2015-05-29T11:03:09.000Z</time>
      </trkpt>
      <trkpt lat="43.58052" lon="1.36253">
        <ele>156</ele>
        <time>2015-05-29T11:03:14.000Z</time>
      </trkpt>
      <trkpt lat="43.58054" lon="1.36249">
        <ele>156</ele>
        <time>2015-05-29T11:03:19.000Z</time>
      </trkpt>
      <trkpt lat="43.58058" lon="1.36244">
        <ele>156</ele>
        <time>2015-05-29T11:03:24.000Z</time>
      </trkpt>
      <trkpt lat="43.58062" lon="1.36236">
        <ele>156</ele>
        <time>2015-05-29T11:03:30.000Z</time>
      </trkpt>
      <trkpt lat="43.58064" lon="1.36228">
        <ele>156</ele>
        <time>2015-05-29T11:03:37.000Z</time>
      </trkpt>
      <trkpt lat="43.58063" lon="1.36223">
        <ele>156</ele>
        <time>2015-05-29T11:03:40.000Z</time>
      </trkpt>
      <trkpt lat="43.58063" lon="1.36219">
        <ele>156</ele>
        <time>2015-05-29T11:03:43.000Z</time>
      </trkpt>
      <trkpt lat="43.5806" lon="1.36208">
        <ele>156</ele>
        <time>2015-05-29T11:03:49.000Z</time>
      </trkpt>
      <trkpt lat="43.5806" lon="1.36207">
        <ele>156</ele>
        <time>2015-05-29T11:03:50.000Z</time>
      </trkpt>
      <trkpt lat="43.58056" lon="1.36197">
        <ele>156</ele>
        <time>2015-05-29T11:03:56.000Z</time>
      </trkpt>
      <trkpt lat="43.5805" lon="1.36191">
        <ele>156</ele>
        <time>2015-05-29T11:04:01.000Z</time>
      </trkpt>
      <trkpt lat="43.58043" lon="1.36186">
        <ele>156</ele>
        <time>2015-05-29T11:04:08.000Z</time>
      </trkpt>
      <trkpt lat="43.58036" lon="1.36182">
        <ele>156</ele>
        <time>2015-05-29T11:04:14.000Z</time>
      </trkpt>
      <trkpt lat="43.58025" lon="1.36171">
        <ele>156</ele>
        <time>2015-05-29T11:04:21.000Z</time>
      </trkpt>
      <trkpt lat="43.58017" lon="1.36158">
        <ele>157</ele>
        <time>2015-05-29T11:04:26.000Z</time>
      </trkpt>
      <trkpt lat="43.58006" lon="1.36151">
        <ele>157</ele>
        <time>2015-05-29T11:04:31.000Z</time>
      </trkpt>
      <trkpt lat="43.57995" lon="1.36142">
        <ele>157</ele>
        <time>2015-05-29T11:04:35.000Z</time>
      </trkpt>
      <trkpt lat="43.57986" lon="1.36127">
        <ele>157</ele>
        <time>2015-05-29T11:04:39.000Z</time>
      </trkpt>
      <trkpt lat="43.57985" lon="1.36123">
        <ele>157</ele>
        <time>2015-05-29T11:04:40.000Z</time>
      </trkpt>
      <trkpt lat="43.57974" lon="1.361">
        <ele>157</ele>
        <time>2015-05-29T11:04:45.000Z</time>
      </trkpt>
      <trkpt lat="43.57967" lon="1.36079">
        <ele>157</ele>
        <time>2015-05-29T11:04:50.000Z</time>
      </trkpt>
      <trkpt lat="43.5796" lon="1.36058">
        <ele>158</ele>
        <time>2015-05-29T11:04:55.000Z</time>
      </trkpt>
      <trkpt lat="43.57952" lon="1.36034">
        <ele>158</ele>
        <time>2015-05-29T11:05:00.000Z</time>
      </trkpt>
      <trkpt lat="43.5795" lon="1.3603">
        <ele>158</ele>
        <time>2015-05-29T11:05:01.000Z</time>
      </trkpt>
      <trkpt lat="43.5794" lon="1.36007">
        <ele>159</ele>
        <time>2015-05-29T11:05:07.000Z</time>
      </trkpt>
      <trkpt lat="43.57934" lon="1.35986">
        <ele>159</ele>
        <time>2015-05-29T11:05:12.000Z</time>
      </trkpt>
      <trkpt lat="43.57929" lon="1.35963">
        <ele>160</ele>
        <time>2015-05-29T11:05:17.000Z</time>
      </trkpt>
      <trkpt lat="43.5792" lon="1.35937">
        <ele>160</ele>
        <time>2015-05-29T11:05:23.000Z</time>
      </trkpt>
      <trkpt lat="43.57917" lon="1.35918">
        <ele>161</ele>
        <time>2015-05-29T11:05:27.000Z</time>
      </trkpt>
      <trkpt lat="43.57913" lon="1.35901">
        <ele>160</ele>
        <time>2015-05-29T11:05:31.000Z</time>
      </trkpt>
      <trkpt lat="43.57904" lon="1.35891">
        <ele>159</ele>
        <time>2015-05-29T11:05:35.000Z</time>
      </trkpt>
      <trkpt lat="43.579" lon="1.35894">
        <ele>159</ele>
        <time>2015-05-29T11:05:36.000Z</time>
      </trkpt>
      <trkpt lat="43.57891" lon="1.35901">
        <ele>159</ele>
        <time>2015-05-29T11:05:38.000Z</time>
      </trkpt>
      <trkpt lat="43.57884" lon="1.35915">
        <ele>159</ele>
        <time>2015-05-29T11:05:41.000Z</time>
      </trkpt>
      <trkpt lat="43.57882" lon="1.3592">
        <ele>159</ele>
        <time>2015-05-29T11:05:42.000Z</time>
      </trkpt>
      <trkpt lat="43.57867" lon="1.35937">
        <ele>159</ele>
        <time>2015-05-29T11:05:47.000Z</time>
      </trkpt>
      <trkpt lat="43.57864" lon="1.3594">
        <ele>159</ele>
        <time>2015-05-29T11:05:48.000Z</time>
      </trkpt>
      <trkpt lat="43.57852" lon="1.35962">
        <ele>159</ele>
        <time>2015-05-29T11:05:53.000Z</time>
      </trkpt>
      <trkpt lat="43.57841" lon="1.35985">
        <ele>159</ele>
        <time>2015-05-29T11:05:58.000Z</time>
      </trkpt>
      <trkpt lat="43.57829" lon="1.36007">
        <ele>159</ele>
        <time>2015-05-29T11:06:03.000Z</time>
      </trkpt>
      <trkpt lat="43.57814" lon="1.36025">
        <ele>158</ele>
        <time>2015-05-29T11:06:08.000Z</time>
      </trkpt>
      <trkpt lat="43.57801" lon="1.36045">
        <ele>158</ele>
        <time>2015-05-29T11:06:13.000Z</time>
      </trkpt>
      <trkpt lat="43.57795" lon="1.36062">
        <ele>157</ele>
        <time>2015-05-29T11:06:17.000Z</time>
      </trkpt>
      <trkpt lat="43.57786" lon="1.3608">
        <ele>157</ele>
        <time>2015-05-29T11:06:21.000Z</time>
      </trkpt>
      <trkpt lat="43.57773" lon="1.36099">
        <ele>158</ele>
        <time>2015-05-29T11:06:26.000Z</time>
      </trkpt>
      <trkpt lat="43.5776" lon="1.36123">
        <ele>158</ele>
        <time>2015-05-29T11:06:31.000Z</time>
      </trkpt>
      <trkpt lat="43.57748" lon="1.36143">
        <ele>159</ele>
        <time>2015-05-29T11:06:36.000Z</time>
      </trkpt>
      <trkpt lat="43.57746" lon="1.36147">
        <ele>159</ele>
        <time>2015-05-29T11:06:37.000Z</time>
      </trkpt>
      <trkpt lat="43.57741" lon="1.36162">
        <ele>160</ele>
        <time>2015-05-29T11:06:40.000Z</time>
      </trkpt>
      <trkpt lat="43.57739" lon="1.36165">
        <ele>160</ele>
        <time>2015-05-29T11:06:41.000Z</time>
      </trkpt>
      <trkpt lat="43.57736" lon="1.36173">
        <ele>160</ele>
        <time>2015-05-29T11:06:45.000Z</time>
      </trkpt>
      <trkpt lat="43.57736" lon="1.36174">
        <ele>160</ele>
        <time>2015-05-29T11:06:46.000Z</time>
      </trkpt>
      <trkpt lat="43.57733" lon="1.3618">
        <ele>160</ele>
        <time>2015-05-29T11:06:51.000Z</time>
      </trkpt>
      <trkpt lat="43.57733" lon="1.36181">
        <ele>160</ele>
        <time>2015-05-29T11:06:52.000Z</time>
      </trkpt>
      <trkpt lat="43.57729" lon="1.36185">
        <ele>159</ele>
        <time>2015-05-29T11:06:58.000Z</time>
      </trkpt>
      <trkpt lat="43.57725" lon="1.3619">
        <ele>159</ele>
        <time>2015-05-29T11:07:02.000Z</time>
      </trkpt>
      <trkpt lat="43.57724" lon="1.36191">
        <ele>159</ele>
        <time>2015-05-29T11:07:03.000Z</time>
      </trkpt>
      <trkpt lat="43.57721" lon="1.36194">
        <ele>159</ele>
        <time>2015-05-29T11:07:07.000Z</time>
      </trkpt>
      <trkpt lat="43.57719" lon="1.36198">
        <ele>159</ele>
        <time>2015-05-29T11:07:10.000Z</time>
      </trkpt>
      <trkpt lat="43.57716" lon="1.36206">
        <ele>159</ele>
        <time>2015-05-29T11:07:16.000Z</time>
      </trkpt>
      <trkpt lat="43.57713" lon="1.3621">
        <ele>159</ele>
        <time>2015-05-29T11:07:20.000Z</time>
      </trkpt>
      <trkpt lat="43.57713" lon="1.36212">
        <ele>159</ele>
        <time>2015-05-29T11:07:22.000Z</time>
      </trkpt>
      <trkpt lat="43.57712" lon="1.36213">
        <ele>159</ele>
        <time>2015-05-29T11:07:23.000Z</time>
      </trkpt>
      <trkpt lat="43.5771" lon="1.36219">
        <ele>159</ele>
        <time>2015-05-29T11:07:27.000Z</time>
      </trkpt>
      <trkpt lat="43.57707" lon="1.36223">
        <ele>159</ele>
        <time>2015-05-29T11:07:31.000Z</time>
      </trkpt>
      <trkpt lat="43.57703" lon="1.36231">
        <ele>159</ele>
        <time>2015-05-29T11:07:37.000Z</time>
      </trkpt>
      <trkpt lat="43.57701" lon="1.36234">
        <ele>159</ele>
        <time>2015-05-29T11:07:39.000Z</time>
      </trkpt>
      <trkpt lat="43.57697" lon="1.3624">
        <ele>158</ele>
        <time>2015-05-29T11:07:44.000Z</time>
      </trkpt>
      <trkpt lat="43.57691" lon="1.3625">
        <ele>158</ele>
        <time>2015-05-29T11:07:50.000Z</time>
      </trkpt>
      <trkpt lat="43.57684" lon="1.36261">
        <ele>158</ele>
        <time>2015-05-29T11:07:55.000Z</time>
      </trkpt>
      <trkpt lat="43.57676" lon="1.36275">
        <ele>159</ele>
        <time>2015-05-29T11:08:00.000Z</time>
      </trkpt>
      <trkpt lat="43.57666" lon="1.3629">
        <ele>158</ele>
        <time>2015-05-29T11:08:05.000Z</time>
      </trkpt>
      <trkpt lat="43.5766" lon="1.36308">
        <ele>158</ele>
        <time>2015-05-29T11:08:10.000Z</time>
      </trkpt>
      <trkpt lat="43.57658" lon="1.36311">
        <ele>159</ele>
        <time>2015-05-29T11:08:11.000Z</time>
      </trkpt>
      <trkpt lat="43.57646" lon="1.36327">
        <ele>159</ele>
        <time>2015-05-29T11:08:15.000Z</time>
      </trkpt>
      <trkpt lat="43.57633" lon="1.36347">
        <ele>160</ele>
        <time>2015-05-29T11:08:20.000Z</time>
      </trkpt>
      <trkpt lat="43.57623" lon="1.36359">
        <ele>159</ele>
        <time>2015-05-29T11:08:24.000Z</time>
      </trkpt>
      <trkpt lat="43.5761" lon="1.36381">
        <ele>160</ele>
        <time>2015-05-29T11:08:30.000Z</time>
      </trkpt>
      <trkpt lat="43.57601" lon="1.36402">
        <ele>161</ele>
        <time>2015-05-29T11:08:35.000Z</time>
      </trkpt>
      <trkpt lat="43.57591" lon="1.3642">
        <ele>162</ele>
        <time>2015-05-29T11:08:40.000Z</time>
      </trkpt>
      <trkpt lat="43.57583" lon="1.36443">
        <ele>162</ele>
        <time>2015-05-29T11:08:45.000Z</time>
      </trkpt>
      <trkpt lat="43.5758" lon="1.36447">
        <ele>162</ele>
        <time>2015-05-29T11:08:46.000Z</time>
      </trkpt>
      <trkpt lat="43.57569" lon="1.36466">
        <ele>162</ele>
        <time>2015-05-29T11:08:51.000Z</time>
      </trkpt>
      <trkpt lat="43.57556" lon="1.36485">
        <ele>162</ele>
        <time>2015-05-29T11:08:56.000Z</time>
      </trkpt>
      <trkpt lat="43.57544" lon="1.36507">
        <ele>162</ele>
        <time>2015-05-29T11:09:01.000Z</time>
      </trkpt>
      <trkpt lat="43.57531" lon="1.36525">
        <ele>161</ele>
        <time>2015-05-29T11:09:06.000Z</time>
      </trkpt>
      <trkpt lat="43.57517" lon="1.36541">
        <ele>161</ele>
        <time>2015-05-29T11:09:11.000Z</time>
      </trkpt>
      <trkpt lat="43.57506" lon="1.36562">
        <ele>161</ele>
        <time>2015-05-29T11:09:16.000Z</time>
      </trkpt>
      <trkpt lat="43.57496" lon="1.36583">
        <ele>160</ele>
        <time>2015-05-29T11:09:21.000Z</time>
      </trkpt>
      <trkpt lat="43.57487" lon="1.36603">
        <ele>159</ele>
        <time>2015-05-29T11:09:26.000Z</time>
      </trkpt>
      <trkpt lat="43.57475" lon="1.36624">
        <ele>158</ele>
        <time>2015-05-29T11:09:31.000Z</time>
      </trkpt>
      <trkpt lat="43.57461" lon="1.36642">
        <ele>158</ele>
        <time>2015-05-29T11:09:36.000Z</time>
      </trkpt>
      <trkpt lat="43.57459" lon="1.36645">
        <ele>158</ele>
        <time>2015-05-29T11:09:37.000Z</time>
      </trkpt>
      <trkpt lat="43.57447" lon="1.36664">
        <ele>157</ele>
        <time>2015-05-29T11:09:42.000Z</time>
      </trkpt>
      <trkpt lat="43.57444" lon="1.3667">
        <ele>157</ele>
        <time>2015-05-29T11:09:43.000Z</time>
      </trkpt>
      <trkpt lat="43.57435" lon="1.36693">
        <ele>157</ele>
        <time>2015-05-29T11:09:48.000Z</time>
      </trkpt>
      <trkpt lat="43.57423" lon="1.36713">
        <ele>157</ele>
        <time>2015-05-29T11:09:53.000Z</time>
      </trkpt>
      <trkpt lat="43.57411" lon="1.36733">
        <ele>156</ele>
        <time>2015-05-29T11:09:58.000Z</time>
      </trkpt>
      <trkpt lat="43.574" lon="1.36754">
        <ele>155</ele>
        <time>2015-05-29T11:10:03.000Z</time>
      </trkpt>
      <trkpt lat="43.57387" lon="1.3677">
        <ele>154</ele>
        <time>2015-05-29T11:10:07.000Z</time>
      </trkpt>
      <trkpt lat="43.5738" lon="1.36784">
        <ele>154</ele>
        <time>2015-05-29T11:10:10.000Z</time>
      </trkpt>
      <trkpt lat="43.57373" lon="1.36796">
        <ele>154</ele>
        <time>2015-05-29T11:10:13.000Z</time>
      </trkpt>
      <trkpt lat="43.5737" lon="1.36804">
        <ele>154</ele>
        <time>2015-05-29T11:10:17.000Z</time>
      </trkpt>
      <trkpt lat="43.57368" lon="1.36812">
        <ele>153</ele>
        <time>2015-05-29T11:10:25.000Z</time>
      </trkpt>
      <trkpt lat="43.57364" lon="1.36818">
        <ele>153</ele>
        <time>2015-05-29T11:10:31.000Z</time>
      </trkpt>
      <trkpt lat="43.57357" lon="1.36824">
        <ele>153</ele>
        <time>2015-05-29T11:10:38.000Z</time>
      </trkpt>
      <trkpt lat="43.5735" lon="1.36827">
        <ele>153</ele>
        <time>2015-05-29T11:10:45.000Z</time>
      </trkpt>
      <trkpt lat="43.57344" lon="1.36825">
        <ele>153</ele>
        <time>2015-05-29T11:10:51.000Z</time>
      </trkpt>
      <trkpt lat="43.57342" lon="1.36824">
        <ele>153</ele>
        <time>2015-05-29T11:10:54.000Z</time>
      </trkpt>
      <trkpt lat="43.57339" lon="1.36822">
        <ele>153</ele>
        <time>2015-05-29T11:10:57.000Z</time>
      </trkpt>
      <trkpt lat="43.57338" lon="1.36821">
        <ele>153</ele>
        <time>2015-05-29T11:10:59.000Z</time>
      </trkpt>
      <trkpt lat="43.57336" lon="1.36819">
        <ele>153</ele>
        <time>2015-05-29T11:11:02.000Z</time>
      </trkpt>
      <trkpt lat="43.57335" lon="1.36818">
        <ele>153</ele>
        <time>2015-05-29T11:11:03.000Z</time>
      </trkpt>
      <trkpt lat="43.57331" lon="1.36812">
        <ele>154</ele>
        <time>2015-05-29T11:11:07.000Z</time>
      </trkpt>
      <trkpt lat="43.57328" lon="1.36809">
        <ele>154</ele>
        <time>2015-05-29T11:11:10.000Z</time>
      </trkpt>
      <trkpt lat="43.57327" lon="1.36809">
        <ele>154</ele>
        <time>2015-05-29T11:11:12.000Z</time>
      </trkpt>
      <trkpt lat="43.57325" lon="1.36807">
        <ele>154</ele>
        <time>2015-05-29T11:11:15.000Z</time>
      </trkpt>
      <trkpt lat="43.57324" lon="1.36805">
        <ele>154</ele>
        <time>2015-05-29T11:11:17.000Z</time>
      </trkpt>
      <trkpt lat="43.57319" lon="1.36796">
        <ele>154</ele>
        <time>2015-05-29T11:11:25.000Z</time>
      </trkpt>
      <trkpt lat="43.57313" lon="1.36791">
        <ele>154</ele>
        <time>2015-05-29T11:11:31.000Z</time>
      </trkpt>
      <trkpt lat="43.57302" lon="1.36791">
        <ele>154</ele>
        <time>2015-05-29T11:11:37.000Z</time>
      </trkpt>
      <trkpt lat="43.57293" lon="1.36796">
        <ele>154</ele>
        <time>2015-05-29T11:11:40.000Z</time>
      </trkpt>
      <trkpt lat="43.57285" lon="1.36801">
        <ele>154</ele>
        <time>2015-05-29T11:11:42.000Z</time>
      </trkpt>
      <trkpt lat="43.57268" lon="1.36814">
        <ele>155</ele>
        <time>2015-05-29T11:11:47.000Z</time>
      </trkpt>
      <trkpt lat="43.57247" lon="1.36818">
        <ele>155</ele>
        <time>2015-05-29T11:11:53.000Z</time>
      </trkpt>
      <trkpt lat="43.57231" lon="1.36821">
        <ele>155</ele>
        <time>2015-05-29T11:11:57.000Z</time>
      </trkpt>
      <trkpt lat="43.57214" lon="1.36824">
        <ele>155</ele>
        <time>2015-05-29T11:12:02.000Z</time>
      </trkpt>
      <trkpt lat="43.57197" lon="1.36827">
        <ele>155</ele>
        <time>2015-05-29T11:12:07.000Z</time>
      </trkpt>
      <trkpt lat="43.57184" lon="1.3683">
        <ele>155</ele>
        <time>2015-05-29T11:12:11.000Z</time>
      </trkpt>
      <trkpt lat="43.57164" lon="1.36832">
        <ele>155</ele>
        <time>2015-05-29T11:12:17.000Z</time>
      </trkpt>
      <trkpt lat="43.57156" lon="1.36842">
        <ele>156</ele>
        <time>2015-05-29T11:12:20.000Z</time>
      </trkpt>
      <trkpt lat="43.57156" lon="1.36847">
        <ele>156</ele>
        <time>2015-05-29T11:12:21.000Z</time>
      </trkpt>
      <trkpt lat="43.57154" lon="1.36875">
        <ele>157</ele>
        <time>2015-05-29T11:12:27.000Z</time>
      </trkpt>
      <trkpt lat="43.57152" lon="1.3688">
        <ele>157</ele>
        <time>2015-05-29T11:12:28.000Z</time>
      </trkpt>
      <trkpt lat="43.57145" lon="1.36903">
        <ele>158</ele>
        <time>2015-05-29T11:12:33.000Z</time>
      </trkpt>
      <trkpt lat="43.57143" lon="1.36908">
        <ele>158</ele>
        <time>2015-05-29T11:12:34.000Z</time>
      </trkpt>
      <trkpt lat="43.57139" lon="1.36928">
        <ele>158</ele>
        <time>2015-05-29T11:12:38.000Z</time>
      </trkpt>
      <trkpt lat="43.57134" lon="1.36953">
        <ele>158</ele>
        <time>2015-05-29T11:12:43.000Z</time>
      </trkpt>
      <trkpt lat="43.57127" lon="1.36975">
        <ele>158</ele>
        <time>2015-05-29T11:12:48.000Z</time>
      </trkpt>
      <trkpt lat="43.5712" lon="1.36998">
        <ele>158</ele>
        <time>2015-05-29T11:12:53.000Z</time>
      </trkpt>
      <trkpt lat="43.57119" lon="1.37004">
        <ele>159</ele>
        <time>2015-05-29T11:12:54.000Z</time>
      </trkpt>
      <trkpt lat="43.57115" lon="1.37024">
        <ele>159</ele>
        <time>2015-05-29T11:12:58.000Z</time>
      </trkpt>
      <trkpt lat="43.57112" lon="1.37046">
        <ele>159</ele>
        <time>2015-05-29T11:13:02.000Z</time>
      </trkpt>
      <trkpt lat="43.57105" lon="1.37065">
        <ele>159</ele>
        <time>2015-05-29T11:13:06.000Z</time>
      </trkpt>
      <trkpt lat="43.57097" lon="1.37089">
        <ele>159</ele>
        <time>2015-05-29T11:13:11.000Z</time>
      </trkpt>
      <trkpt lat="43.57095" lon="1.37093">
        <ele>159</ele>
        <time>2015-05-29T11:13:12.000Z</time>
      </trkpt>
      <trkpt lat="43.57086" lon="1.37115">
        <ele>159</ele>
        <time>2015-05-29T11:13:17.000Z</time>
      </trkpt>
      <trkpt lat="43.57079" lon="1.37134">
        <ele>160</ele>
        <time>2015-05-29T11:13:22.000Z</time>
      </trkpt>
      <trkpt lat="43.57074" lon="1.3715">
        <ele>160</ele>
        <time>2015-05-29T11:13:26.000Z</time>
      </trkpt>
      <trkpt lat="43.57064" lon="1.37167">
        <ele>160</ele>
        <time>2015-05-29T11:13:31.000Z</time>
      </trkpt>
      <trkpt lat="43.57062" lon="1.37165">
        <ele>160</ele>
        <time>2015-05-29T11:13:32.000Z</time>
      </trkpt>
      <trkpt lat="43.57055" lon="1.37163">
        <ele>160</ele>
        <time>2015-05-29T11:13:34.000Z</time>
      </trkpt>
      <trkpt lat="43.57038" lon="1.37169">
        <ele>160</ele>
        <time>2015-05-29T11:13:38.000Z</time>
      </trkpt>
      <trkpt lat="43.57025" lon="1.37188">
        <ele>160</ele>
        <time>2015-05-29T11:13:42.000Z</time>
      </trkpt>
      <trkpt lat="43.57021" lon="1.37192">
        <ele>160</ele>
        <time>2015-05-29T11:13:43.000Z</time>
      </trkpt>
      <trkpt lat="43.57012" lon="1.37203">
        <ele>160</ele>
        <time>2015-05-29T11:13:46.000Z</time>
      </trkpt>
      <trkpt lat="43.57008" lon="1.37207">
        <ele>160</ele>
        <time>2015-05-29T11:13:48.000Z</time>
      </trkpt>
      <trkpt lat="43.57007" lon="1.37208">
        <ele>160</ele>
        <time>2015-05-29T11:13:50.000Z</time>
      </trkpt>
      <trkpt lat="43.57004" lon="1.3721">
        <ele>160</ele>
        <time>2015-05-29T11:13:58.000Z</time>
      </trkpt>
      <trkpt lat="43.56997" lon="1.37214">
        <ele>160</ele>
        <time>2015-05-29T11:14:07.000Z</time>
      </trkpt>
      <trkpt lat="43.56991" lon="1.37217">
        <ele>160</ele>
        <time>2015-05-29T11:14:14.000Z</time>
      </trkpt>
      <trkpt lat="43.56983" lon="1.37219">
        <ele>160</ele>
        <time>2015-05-29T11:14:22.000Z</time>
      </trkpt>
      <trkpt lat="43.56978" lon="1.37223">
        <ele>160</ele>
        <time>2015-05-29T11:14:28.000Z</time>
      </trkpt>
      <trkpt lat="43.56972" lon="1.37225">
        <ele>159</ele>
        <time>2015-05-29T11:14:33.000Z</time>
      </trkpt>
      <trkpt lat="43.56969" lon="1.37225">
        <ele>159</ele>
        <time>2015-05-29T11:14:36.000Z</time>
      </trkpt>
      <trkpt lat="43.56966" lon="1.37229">
        <ele>159</ele>
        <time>2015-05-29T11:14:40.000Z</time>
      </trkpt>
      <trkpt lat="43.56961" lon="1.37231">
        <ele>159</ele>
        <time>2015-05-29T11:14:44.000Z</time>
      </trkpt>
      <trkpt lat="43.56952" lon="1.37236">
        <ele>159</ele>
        <time>2015-05-29T11:14:52.000Z</time>
      </trkpt>
      <trkpt lat="43.56946" lon="1.37242">
        <ele>159</ele>
        <time>2015-05-29T11:14:59.000Z</time>
      </trkpt>
      <trkpt lat="43.56939" lon="1.37251">
        <ele>159</ele>
        <time>2015-05-29T11:15:07.000Z</time>
      </trkpt>
      <trkpt lat="43.56933" lon="1.37263">
        <ele>159</ele>
        <time>2015-05-29T11:15:13.000Z</time>
      </trkpt>
      <trkpt lat="43.56931" lon="1.37266">
        <ele>159</ele>
        <time>2015-05-29T11:15:14.000Z</time>
      </trkpt>
      <trkpt lat="43.56922" lon="1.37284">
        <ele>159</ele>
        <time>2015-05-29T11:15:19.000Z</time>
      </trkpt>
      <trkpt lat="43.56914" lon="1.3731">
        <ele>158</ele>
        <time>2015-05-29T11:15:24.000Z</time>
      </trkpt>
      <trkpt lat="43.56905" lon="1.37326">
        <ele>158</ele>
        <time>2015-05-29T11:15:28.000Z</time>
      </trkpt>
      <trkpt lat="43.56892" lon="1.3734">
        <ele>157</ele>
        <time>2015-05-29T11:15:32.000Z</time>
      </trkpt>
      <trkpt lat="43.56876" lon="1.37361">
        <ele>157</ele>
        <time>2015-05-29T11:15:37.000Z</time>
      </trkpt>
      <trkpt lat="43.56865" lon="1.37376">
        <ele>157</ele>
        <time>2015-05-29T11:15:41.000Z</time>
      </trkpt>
      <trkpt lat="43.56862" lon="1.3738">
        <ele>157</ele>
        <time>2015-05-29T11:15:42.000Z</time>
      </trkpt>
      <trkpt lat="43.56855" lon="1.37392">
        <ele>157</ele>
        <time>2015-05-29T11:15:45.000Z</time>
      </trkpt>
      <trkpt lat="43.56852" lon="1.37401">
        <ele>157</ele>
        <time>2015-05-29T11:15:47.000Z</time>
      </trkpt>
      <trkpt lat="43.5684" lon="1.37425">
        <ele>156</ele>
        <time>2015-05-29T11:15:53.000Z</time>
      </trkpt>
      <trkpt lat="43.56831" lon="1.37445">
        <ele>157</ele>
        <time>2015-05-29T11:15:58.000Z</time>
      </trkpt>
      <trkpt lat="43.56826" lon="1.37467">
        <ele>158</ele>
        <time>2015-05-29T11:16:03.000Z</time>
      </trkpt>
      <trkpt lat="43.56817" lon="1.37468">
        <ele>158</ele>
        <time>2015-05-29T11:16:06.000Z</time>
      </trkpt>
      <trkpt lat="43.56814" lon="1.3747">
        <ele>158</ele>
        <time>2015-05-29T11:16:07.000Z</time>
      </trkpt>
      <trkpt lat="43.56807" lon="1.37477">
        <ele>158</ele>
        <time>2015-05-29T11:16:09.000Z</time>
      </trkpt>
      <trkpt lat="43.568" lon="1.37496">
        <ele>158</ele>
        <time>2015-05-29T11:16:13.000Z</time>
      </trkpt>
      <trkpt lat="43.56794" lon="1.37523">
        <ele>159</ele>
        <time>2015-05-29T11:16:18.000Z</time>
      </trkpt>
      <trkpt lat="43.56792" lon="1.37534">
        <ele>159</ele>
        <time>2015-05-29T11:16:20.000Z</time>
      </trkpt>
      <trkpt lat="43.5679" lon="1.37549">
        <ele>159</ele>
        <time>2015-05-29T11:16:23.000Z</time>
      </trkpt>
      <trkpt lat="43.56785" lon="1.37575">
        <ele>159</ele>
        <time>2015-05-29T11:16:28.000Z</time>
      </trkpt>
      <trkpt lat="43.56783" lon="1.37586">
        <ele>160</ele>
        <time>2015-05-29T11:16:30.000Z</time>
      </trkpt>
      <trkpt lat="43.5678" lon="1.37614">
        <ele>160</ele>
        <time>2015-05-29T11:16:35.000Z</time>
      </trkpt>
      <trkpt lat="43.56777" lon="1.37639">
        <ele>159</ele>
        <time>2015-05-29T11:16:40.000Z</time>
      </trkpt>
      <trkpt lat="43.56772" lon="1.37665">
        <ele>159</ele>
        <time>2015-05-29T11:16:45.000Z</time>
      </trkpt>
      <trkpt lat="43.56762" lon="1.3768">
        <ele>159</ele>
        <time>2015-05-29T11:16:49.000Z</time>
      </trkpt>
      <trkpt lat="43.56747" lon="1.37699">
        <ele>159</ele>
        <time>2015-05-29T11:16:54.000Z</time>
      </trkpt>
      <trkpt lat="43.5674" lon="1.37708">
        <ele>159</ele>
        <time>2015-05-29T11:16:56.000Z</time>
      </trkpt>
      <trkpt lat="43.56728" lon="1.37731">
        <ele>159</ele>
        <time>2015-05-29T11:17:01.000Z</time>
      </trkpt>
      <trkpt lat="43.56722" lon="1.3774">
        <ele>159</ele>
        <time>2015-05-29T11:17:03.000Z</time>
      </trkpt>
      <trkpt lat="43.56719" lon="1.37744">
        <ele>159</ele>
        <time>2015-05-29T11:17:04.000Z</time>
      </trkpt>
      <trkpt lat="43.56707" lon="1.37762">
        <ele>159</ele>
        <time>2015-05-29T11:17:08.000Z</time>
      </trkpt>
      <trkpt lat="43.56704" lon="1.37772">
        <ele>159</ele>
        <time>2015-05-29T11:17:10.000Z</time>
      </trkpt>
      <trkpt lat="43.56702" lon="1.37776">
        <ele>159</ele>
        <time>2015-05-29T11:17:11.000Z</time>
      </trkpt>
      <trkpt lat="43.56698" lon="1.37782">
        <ele>159</ele>
        <time>2015-05-29T11:17:13.000Z</time>
      </trkpt>
      <trkpt lat="43.56696" lon="1.37786">
        <ele>159</ele>
        <time>2015-05-29T11:17:16.000Z</time>
      </trkpt>
      <trkpt lat="43.56697" lon="1.37786">
        <ele>159</ele>
        <time>2015-05-29T11:17:17.000Z</time>
      </trkpt>
      <trkpt lat="43.56697" lon="1.37792">
        <ele>159</ele>
        <time>2015-05-29T11:17:22.000Z</time>
      </trkpt>
      <trkpt lat="43.56694" lon="1.37796">
        <ele>159</ele>
        <time>2015-05-29T11:17:27.000Z</time>
      </trkpt>
      <trkpt lat="43.56691" lon="1.37803">
        <ele>159</ele>
        <time>2015-05-29T11:17:33.000Z</time>
      </trkpt>
      <trkpt lat="43.56689" lon="1.37806">
        <ele>159</ele>
        <time>2015-05-29T11:17:36.000Z</time>
      </trkpt>
      <trkpt lat="43.56686" lon="1.37812">
        <ele>159</ele>
        <time>2015-05-29T11:17:41.000Z</time>
      </trkpt>
      <trkpt lat="43.56683" lon="1.37819">
        <ele>159</ele>
        <time>2015-05-29T11:17:48.000Z</time>
      </trkpt>
      <trkpt lat="43.5668" lon="1.37827">
        <ele>159</ele>
        <time>2015-05-29T11:17:55.000Z</time>
      </trkpt>
      <trkpt lat="43.56678" lon="1.37831">
        <ele>159</ele>
        <time>2015-05-29T11:17:58.000Z</time>
      </trkpt>
      <trkpt lat="43.56675" lon="1.37835">
        <ele>158</ele>
        <time>2015-05-29T11:18:02.000Z</time>
      </trkpt>
      <trkpt lat="43.56671" lon="1.37844">
        <ele>158</ele>
        <time>2015-05-29T11:18:08.000Z</time>
      </trkpt>
      <trkpt lat="43.56667" lon="1.37851">
        <ele>159</ele>
        <time>2015-05-29T11:18:15.000Z</time>
      </trkpt>
      <trkpt lat="43.56662" lon="1.3786">
        <ele>157</ele>
        <time>2015-05-29T11:18:22.000Z</time>
      </trkpt>
      <trkpt lat="43.56659" lon="1.37867">
        <ele>157</ele>
        <time>2015-05-29T11:18:27.000Z</time>
      </trkpt>
      <trkpt lat="43.56658" lon="1.37868">
        <ele>157</ele>
        <time>2015-05-29T11:18:28.000Z</time>
      </trkpt>
      <trkpt lat="43.56654" lon="1.37878">
        <ele>157</ele>
        <time>2015-05-29T11:18:36.000Z</time>
      </trkpt>
      <trkpt lat="43.56651" lon="1.37885">
        <ele>157</ele>
        <time>2015-05-29T11:18:40.000Z</time>
      </trkpt>
      <trkpt lat="43.5665" lon="1.37891">
        <ele>157</ele>
        <time>2015-05-29T11:18:42.000Z</time>
      </trkpt>
      <trkpt lat="43.56643" lon="1.37902">
        <ele>157</ele>
        <time>2015-05-29T11:18:47.000Z</time>
      </trkpt>
      <trkpt lat="43.5664" lon="1.37914">
        <ele>157</ele>
        <time>2015-05-29T11:18:54.000Z</time>
      </trkpt>
      <trkpt lat="43.56633" lon="1.37928">
        <ele>157</ele>
        <time>2015-05-29T11:19:00.000Z</time>
      </trkpt>
      <trkpt lat="43.56624" lon="1.37947">
        <ele>157</ele>
        <time>2015-05-29T11:19:06.000Z</time>
      </trkpt>
      <trkpt lat="43.56618" lon="1.37968">
        <ele>157</ele>
        <time>2015-05-29T11:19:12.000Z</time>
      </trkpt>
      <trkpt lat="43.56613" lon="1.37981">
        <ele>157</ele>
        <time>2015-05-29T11:19:16.000Z</time>
      </trkpt>
      <trkpt lat="43.56607" lon="1.38">
        <ele>157</ele>
        <time>2015-05-29T11:19:22.000Z</time>
      </trkpt>
      <trkpt lat="43.56603" lon="1.38014">
        <ele>157</ele>
        <time>2015-05-29T11:19:26.000Z</time>
      </trkpt>
      <trkpt lat="43.56596" lon="1.38031">
        <ele>157</ele>
        <time>2015-05-29T11:19:32.000Z</time>
      </trkpt>
      <trkpt lat="43.5659" lon="1.38046">
        <ele>157</ele>
        <time>2015-05-29T11:19:37.000Z</time>
      </trkpt>
      <trkpt lat="43.56584" lon="1.38064">
        <ele>157</ele>
        <time>2015-05-29T11:19:43.000Z</time>
      </trkpt>
      <trkpt lat="43.56578" lon="1.38081">
        <ele>156</ele>
        <time>2015-05-29T11:19:49.000Z</time>
      </trkpt>
      <trkpt lat="43.56573" lon="1.38098">
        <ele>156</ele>
        <time>2015-05-29T11:19:55.000Z</time>
      </trkpt>
      <trkpt lat="43.56567" lon="1.38115">
        <ele>157</ele>
        <time>2015-05-29T11:20:01.000Z</time>
      </trkpt>
      <trkpt lat="43.56559" lon="1.38132">
        <ele>157</ele>
        <time>2015-05-29T11:20:08.000Z</time>
      </trkpt>
      <trkpt lat="43.56555" lon="1.38147">
        <ele>157</ele>
        <time>2015-05-29T11:20:13.000Z</time>
      </trkpt>
      <trkpt lat="43.5655" lon="1.38161">
        <ele>157</ele>
        <time>2015-05-29T11:20:18.000Z</time>
      </trkpt>
      <trkpt lat="43.56545" lon="1.38175">
        <ele>156</ele>
        <time>2015-05-29T11:20:23.000Z</time>
      </trkpt>
      <trkpt lat="43.56538" lon="1.38199">
        <ele>156</ele>
        <time>2015-05-29T11:20:31.000Z</time>
      </trkpt>
      <trkpt lat="43.56532" lon="1.38219">
        <ele>156</ele>
        <time>2015-05-29T11:20:38.000Z</time>
      </trkpt>
      <trkpt lat="43.56526" lon="1.38237">
        <ele>156</ele>
        <time>2015-05-29T11:20:45.000Z</time>
      </trkpt>
      <trkpt lat="43.5652" lon="1.38254">
        <ele>156</ele>
        <time>2015-05-29T11:20:51.000Z</time>
      </trkpt>
      <trkpt lat="43.56514" lon="1.38267">
        <ele>156</ele>
        <time>2015-05-29T11:20:57.000Z</time>
      </trkpt>
      <trkpt lat="43.56512" lon="1.38275">
        <ele>156</ele>
        <time>2015-05-29T11:21:03.000Z</time>
      </trkpt>
      <trkpt lat="43.56508" lon="1.38284">
        <ele>156</ele>
        <time>2015-05-29T11:21:10.000Z</time>
      </trkpt>
      <trkpt lat="43.56507" lon="1.3829">
        <ele>156</ele>
        <time>2015-05-29T11:21:14.000Z</time>
      </trkpt>
    </trkseg>
  </trk>
</gpx>